Data for 08/12/2009

Time Sea-Level Adjusted Pressure Absolute Pressure Temperature Relative Humidity Dew Point Precipitation   
(mb) (inHg) (mb) (inHg) (C) (F) (%) (C) (F) (mm) (in)
00:01 1023 30.21 852 25.16 13.6 56.5 60 6.1 43 13.83 0.544
00:02 1023 30.21 852 25.16 13.6 56.6 59 5.9 42.6 13.89 0.547
00:03 1023 30.21 852 25.16 13.7 56.7 58 5.7 42.3 13.93 0.548
00:04 1023 30.21 852 25.16 13.8 56.9 58 5.8 42.4 14.03 0.552
00:05 1023 30.21 852 25.16 13.9 57 58 5.9 42.6 14.1 0.555
00:06 1023 30.21 852 25.16 13.8 56.9 59 6 42.8 14.1 0.555
00:07 1023 30.21 852 25.16 13.8 56.8 59 5.9 42.6 14.08 0.554
00:08 1023 30.21 852 25.16 13.8 56.9 59 5.9 42.7 14.14 0.557
00:09 1023 30.21 852 25.16 13.9 57.1 56 5.3 41.6 14.19 0.559
00:10 1023 30.21 852 25.16 14.2 57.6 54 5.1 41.2 14.46 0.569
00:11 1023 30.21 852 25.16 14.6 58.2 54 5.4 41.8 14.75 0.581
00:12 1023 30.21 852 25.16 14.7 58.4 55 5.8 42.4 14.87 0.585
00:13 1023 30.21 852 25.16 14.6 58.3 55 5.8 42.4 14.82 0.583
00:14 1023 30.21 852 25.16 14.5 58.1 55 5.8 42.4 14.81 0.583
00:15 1023 30.21 852 25.16 14.4 58 55 5.7 42.3 14.75 0.581
00:16 1023 30.21 852 25.16 14.4 57.9 56 5.8 42.5 14.73 0.58
00:17 1023 30.21 852 25.16 14.4 57.9 56 5.9 42.6 14.71 0.579
00:18 1023 30.21 852 25.16 14.3 57.7 56 5.8 42.5 14.68 0.578
00:19 1023 30.21 852 25.16 14.3 57.7 57 5.9 42.6 14.65 0.577
00:20 1023 30.21 852 25.16 14.2 57.6 59 6.3 43.4 14.56 0.573
00:21 1023 30.21 852 25.16 13.9 57 60 6.4 43.6 14.23 0.56
00:22 1023 30.21 852 25.16 13.5 56.4 61 6.3 43.4 13.94 0.549
00:23 1023 30.21 852 25.16 13.5 56.2 61 6.1 42.9 13.86 0.546
00:24 1023 30.21 852 25.16 13.5 56.3 60 6 42.7 13.82 0.544
00:25 1023 30.21 852 25.16 13.6 56.4 59 5.8 42.4 13.88 0.546
00:26 1023 30.21 852 25.16 13.6 56.6 59 5.8 42.4 13.94 0.549
00:27 1023 30.21 852 25.16 13.7 56.6 58 5.7 42.2 13.99 0.551
00:28 1023 30.21 852 25.16 13.8 56.8 57 5.5 42 14.08 0.554
00:29 1023 30.21 852 25.16 13.9 57 57 5.6 42.1 14.19 0.559
00:30 1023 30.21 852 25.16 14 57.1 57 5.6 42.1 14.21 0.559
00:31 1023 30.21 852 25.16 14 57.1 58 5.8 42.4 14.23 0.56
00:32 1023 30.21 852 25.16 13.8 56.9 57 5.5 41.9 14.16 0.557
00:33 1023 30.21 852 25.16 13.7 56.7 58 5.7 42.2 14.05 0.553
00:34 1023 30.21 852 25.16 13.7 56.6 58 5.7 42.3 13.98 0.55
00:35 1023 30.21 852 25.16 13.6 56.5 57 5.4 41.7 13.96 0.55
00:36 1023 30.21 852 25.16 13.6 56.5 58 5.6 42.1 13.91 0.548
00:37 1023 30.21 852 25.16 13.4 56.2 61 6.3 43.3 13.75 0.541
00:38 1023 30.21 852 25.16 13.1 55.5 62 6 42.8 13.45 0.53
00:39 1023 30.21 852 25.16 12.9 55.2 62 5.7 42.3 13.23 0.521
00:40 1023 30.21 852 25.16 12.9 55.2 61 5.5 42 13.17 0.519
00:41 1023 30.21 852 25.16 12.9 55.3 60 5.4 41.7 13.24 0.521
00:42 1023 30.21 852 25.16 13 55.4 61 5.7 42.3 13.22 0.52
00:43 1023 30.21 852 25.16 12.7 54.9 64 6.1 42.9 13.01 0.512
00:44 1023 30.21 852 25.16 12.5 54.5 62 5.6 42 12.83 0.505
00:45 1023 30.21 852 25.16 12.6 54.7 62 5.7 42.2 12.87 0.507
00:46 1023 30.21 852 25.16 12.6 54.7 62 5.5 41.9 12.9 0.508
00:47 1023 30.21 852 25.16 12.8 55 60 5.2 41.4 13.04 0.513
00:48 1023 30.21 852 25.16 13 55.5 60 5.5 41.9 13.29 0.523
00:49 1023 30.21 852 25.16 13.1 55.6 60 5.5 41.8 13.34 0.525
00:50 1023 30.21 852 25.16 13 55.5 61 5.7 42.3 13.33 0.525
00:51 1023 30.21 852 25.16 12.8 55.1 62 5.9 42.6 13.14 0.517
00:52 1023 30.21 852 25.16 12.6 54.7 63 5.8 42.5 12.97 0.511
00:53 1023 30.21 852 25.16 12.5 54.4 63 5.8 42.4 12.8 0.504
00:54 1023 30.21 852 25.16 12.4 54.3 63 5.7 42.2 12.73 0.501
00:55 1023 30.21 852 25.16 12.4 54.4 62 5.5 41.8 12.73 0.501
00:56 1023 30.21 852 25.16 12.5 54.6 62 5.5 41.9 12.76 0.502
00:57 1023 30.21 852 25.16 12.6 54.6 62 5.5 41.9 12.85 0.506
00:58 1023 30.21 852 25.16 12.6 54.6 62 5.5 41.9 12.86 0.506
00:59 1023 30.21 852 25.16 12.7 54.8 61 5.3 41.5 12.92 0.509
01:00 1023 30.21 852 25.16 12.8 55 61 5.5 41.9 13.01 0.512
01:01 1023 30.21 852 25.16 12.8 55 59 5.1 41.1 13.05 0.514
01:02 1023 30.21 852 25.16 12.8 55.1 60 5.4 41.8 13.14 0.517
01:03 1023 30.21 852 25.16 12.9 55.1 62 5.7 42.3 13.18 0.519
01:04 1023 30.21 852 25.16 12.7 54.8 63 5.8 42.5 13 0.512
01:05 1023 30.21 852 25.16 12.4 54.3 64 5.9 42.7 12.77 0.503
01:06 1023 30.21 852 25.16 12.2 53.9 65 5.9 42.6 12.53 0.493
01:07 1023 30.21 852 25.16 12 53.5 66 6 42.7 12.35 0.486
01:08 1023 30.21 852 25.16 11.7 53.1 67 5.9 42.7 12.09 0.476
01:09 1023 30.21 852 25.16 11.6 52.8 68 6 42.7 11.91 0.469
01:10 1023 30.21 852 25.16 11.4 52.6 68 5.8 42.4 11.8 0.465
01:11 1023 30.21 852 25.16 11.4 52.5 69 5.8 42.5 11.75 0.463
01:12 1023 30.21 852 25.16 11.3 52.4 68 5.8 42.4 11.69 0.46
01:13 1023 30.21 852 25.16 11.3 52.3 69 5.8 42.4 11.63 0.458
01:14 1023 30.21 852 25.16 11.3 52.3 69 5.8 42.5 11.64 0.458
01:15 1023 30.21 852 25.16 11.3 52.3 68 5.7 42.2 11.63 0.458
01:16 1023 30.21 852 25.16 11.3 52.3 67 5.5 41.8 11.69 0.46
01:17 1023 30.21 852 25.16 11.5 52.7 65 5.1 41.2 11.8 0.465
01:18 1023 30.21 852 25.16 11.9 53.3 62 4.9 40.8 12.08 0.476
01:19 1023 30.21 852 25.16 12.3 54.1 61 5 41 12.37 0.487
01:20 1023 30.21 852 25.16 12.6 54.6 58 4.6 40.3 12.67 0.499
01:21 1023 30.21 852 25.16 12.9 55.3 56 4.5 40 12.99 0.511
01:22 1023 30.21 852 25.16 13.3 55.9 55 4.5 40.1 13.4 0.528
01:23 1022 30.18 852 25.16 13.6 56.4 55 4.9 40.8 13.6 0.535
01:24 1022 30.18 852 25.16 13.6 56.5 55 4.8 40.7 13.72 0.54
01:25 1022 30.18 852 25.16 13.6 56.5 56 5.1 41.2 13.81 0.544
01:26 1023 30.21 852 25.16 13.4 56.2 59 5.6 42.1 13.64 0.537
01:27 1022 30.18 852 25.16 13.1 55.6 60 5.6 42.1 13.37 0.526
01:28 1022 30.18 852 25.16 12.9 55.2 61 5.6 42.1 13.19 0.519
01:29 1022 30.18 852 25.16 12.8 55 61 5.6 42 13.11 0.516
01:30 1022 30.18 852 25.16 12.7 54.8 62 5.6 42 13.01 0.512
01:31 1022 30.18 852 25.16 12.6 54.7 61 5.4 41.8 12.93 0.509
01:32 1022 30.18 852 25.16 12.6 54.7 62 5.5 41.9 12.9 0.508
01:33 1022 30.18 852 25.16 12.5 54.5 63 5.6 42.1 12.86 0.506
01:34 1022 30.18 852 25.16 12.5 54.4 62 5.4 41.7 12.78 0.503
01:35 1022 30.18 852 25.16 12.5 54.4 61 5.2 41.4 12.76 0.502
01:36 1022 30.18 852 25.16 12.5 54.6 61 5.3 41.5 12.8 0.504
01:37 1022 30.18 852 25.16 12.6 54.7 60 5.2 41.4 12.83 0.505
01:38 1022 30.18 852 25.16 12.6 54.7 61 5.4 41.7 12.9 0.508
01:39 1022 30.18 852 25.16 12.5 54.6 62 5.5 41.9 12.79 0.504
01:40 1022 30.18 852 25.16 12.4 54.3 63 5.5 41.9 12.71 0.5
01:41 1022 30.18 852 25.16 12.4 54.3 62 5.3 41.5 12.67 0.499
01:42 1022 30.18 852 25.16 12.4 54.4 61 5.1 41.2 12.68 0.499
01:43 1022 30.18 852 25.16 12.5 54.4 61 5.3 41.5 12.71 0.5
01:44 1022 30.18 852 25.16 12.4 54.3 62 5.3 41.6 12.68 0.499
01:45 1022 30.18 852 25.16 12.3 54.2 62 5.4 41.7 12.61 0.496
01:46 1022 30.18 852 25.16 12.2 54 63 5.5 41.9 12.49 0.492
01:47 1022 30.18 852 25.16 12.1 53.7 64 5.4 41.7 12.38 0.487
01:48 1022 30.18 852 25.16 11.9 53.5 64 5.5 41.9 12.23 0.481
01:49 1022 30.18 852 25.16 11.8 53.3 64 5.4 41.7 12.16 0.479
01:50 1022 30.18 852 25.16 11.8 53.2 65 5.4 41.7 12.12 0.477
01:51 1022 30.18 851 25.13 11.8 53.2 64 5.3 41.5 12.13 0.478
01:52 1022 30.18 851 25.13 11.9 53.3 63 5.1 41.2 12.16 0.479
01:53 1022 30.18 851 25.13 12.1 53.7 61 4.7 40.5 12.27 0.483
01:54 1022 30.18 851 25.13 12.3 54.1 61 4.9 40.9 12.48 0.491
01:55 1022 30.18 851 25.13 12.4 54.4 61 5.2 41.3 12.59 0.496
01:56 1022 30.18 851 25.13 12.3 54.2 64 5.7 42.2 12.55 0.494
01:57 1022 30.18 851 25.13 12 53.6 65 5.7 42.3 12.27 0.483
01:58 1022 30.18 851 25.13 11.8 53.2 66 5.7 42.2 12.06 0.475
01:59 1022 30.18 851 25.13 11.6 52.9 65 5.4 41.7 11.96 0.471
02:00 1022 30.18 851 25.13 11.7 53.1 64 5.2 41.4 12.02 0.473
02:01 1022 30.18 851 25.13 11.9 53.3 62 5 40.9 12.12 0.477
02:02 1022 30.18 851 25.13 12.1 53.8 63 5.3 41.6 12.32 0.485
02:03 1022 30.18 851 25.13 12.2 53.9 61 5 41.1 12.4 0.488
02:04 1022 30.18 851 25.13 12.3 54.2 62 5.2 41.4 12.58 0.495
02:05 1022 30.18 851 25.13 12.4 54.3 62 5.4 41.6 12.62 0.497
02:06 1022 30.18 851 25.13 12.3 54.2 63 5.4 41.8 12.6 0.496
02:07 1022 30.18 851 25.13 12.2 54 63 5.4 41.8 12.53 0.493
02:08 1022 30.18 851 25.13 12.1 53.8 64 5.5 41.8 12.44 0.49
02:09 1022 30.18 851 25.13 11.9 53.4 65 5.5 41.9 12.27 0.483
02:10 1022 30.18 851 25.13 11.9 53.5 61 4.6 40.4 12.24 0.482
02:11 1022 30.18 851 25.13 12.3 54.2 58 4.5 40 12.52 0.493
02:12 1022 30.18 851 25.13 12.8 55 58 4.7 40.5 12.91 0.508
02:13 1022 30.18 851 25.13 13 55.3 57 4.8 40.7 13.13 0.517
02:14 1022 30.18 851 25.13 13.1 55.6 58 5.1 41.1 13.28 0.523
02:15 1022 30.18 851 25.13 13.1 55.6 59 5.3 41.6 13.29 0.523
02:16 1022 30.18 851 25.13 13 55.4 58 5 40.9 13.26 0.522
02:17 1022 30.18 851 25.13 13 55.5 58 5.1 41.1 13.25 0.522
02:18 1022 30.18 851 25.13 13.1 55.5 57 4.9 40.8 13.32 0.524
02:19 1022 30.18 851 25.13 13.1 55.5 58 5.1 41.1 13.31 0.524
02:20 1022 30.18 851 25.13 13 55.5 57 4.9 40.8 13.33 0.525
02:21 1022 30.18 851 25.13 13.1 55.5 59 5.3 41.5 13.33 0.525
02:22 1022 30.18 851 25.13 12.9 55.2 61 5.5 41.9 13.18 0.519
02:23 1022 30.18 851 25.13 12.6 54.8 61 5.4 41.8 12.94 0.509
02:24 1022 30.18 851 25.13 12.5 54.4 60 5 41 12.83 0.505
02:25 1022 30.18 851 25.13 12.5 54.5 62 5.4 41.7 12.81 0.504
02:26 1022 30.18 852 25.16 12.4 54.2 64 5.8 42.4 12.71 0.5
02:27 1022 30.18 852 25.16 12 53.6 66 6 42.7 12.38 0.487
02:28 1022 30.18 852 25.16 11.6 52.8 67 5.8 42.4 12.02 0.473
02:29 1022 30.18 852 25.16 11.4 52.6 63 4.7 40.5 11.83 0.466
02:30 1022 30.18 852 25.16 11.9 53.4 62 4.8 40.6 12.22 0.481
02:31 1022 30.18 852 25.16 12.2 53.9 60 4.7 40.5 12.48 0.491
02:32 1022 30.18 852 25.16 12.4 54.2 59 4.8 40.6 12.69 0.5
02:33 1022 30.18 852 25.16 12.6 54.6 59 4.9 40.8 12.81 0.504
02:34 1022 30.18 852 25.16 12.7 54.8 59 5 41 12.93 0.509
02:35 1022 30.18 852 25.16 12.6 54.7 60 5.1 41.3 12.93 0.509
02:36 1022 30.18 852 25.16 12.4 54.4 62 5.4 41.7 12.77 0.503
02:37 1022 30.18 851 25.13 12.1 53.8 63 5.2 41.4 12.53 0.493
02:38 1022 30.18 851 25.13 12 53.6 63 5.2 41.4 12.37 0.487
02:39 1022 30.18 851 25.13 11.9 53.4 65 5.5 41.9 12.25 0.482
02:40 1022 30.18 851 25.13 11.7 53 62 4.8 40.6 12.08 0.476
02:41 1022 30.18 851 25.13 11.9 53.5 63 5 41.1 12.18 0.48
02:42 1022 30.18 851 25.13 12 53.5 62 5 41 12.22 0.481
02:43 1022 30.18 851 25.13 12 53.5 62 4.9 40.8 12.22 0.481
02:44 1022 30.18 851 25.13 12 53.7 62 5 41 12.29 0.484
02:45 1022 30.18 851 25.13 12.1 53.7 61 4.9 40.8 12.32 0.485
02:46 1022 30.18 851 25.13 12 53.7 63 5.2 41.4 12.29 0.484
02:47 1022 30.18 851 25.13 12 53.6 62 4.9 40.8 12.27 0.483
02:48 1022 30.18 851 25.13 12 53.6 62 5.1 41.2 12.27 0.483
02:49 1022 30.18 851 25.13 12 53.5 64 5.4 41.7 12.23 0.481
02:50 1022 30.18 851 25.13 11.8 53.3 62 4.8 40.7 12.19 0.48
02:51 1022 30.18 851 25.13 12 53.5 63 5.3 41.5 12.27 0.483
02:52 1022 30.18 851 25.13 11.8 53.2 65 5.5 41.8 12.08 0.476
02:53 1022 30.18 851 25.13 11.4 52.6 67 5.6 42.1 11.82 0.465
02:54 1022 30.18 851 25.13 11.1 52 68 5.5 41.9 11.51 0.453
02:55 1022 30.18 851 25.13 10.9 51.7 69 5.6 42 11.34 0.446
02:56 1022 30.18 851 25.13 10.7 51.2 70 5.5 42 11.15 0.439
02:57 1022 30.18 851 25.13 10.5 51 70 5.3 41.6 11 0.433
02:58 1022 30.18 851 25.13 10.6 51.1 68 5 41 10.98 0.432
02:59 1022 30.18 851 25.13 10.8 51.5 68 5.2 41.4 11.1 0.437
03:00 1022 30.18 851 25.13 10.8 51.4 68 5.2 41.4 11.12 0.438
03:01 1022 30.18 851 25.13 10.8 51.5 69 5.3 41.6 11.07 0.436
03:02 1022 30.18 851 25.13 10.7 51.2 70 5.4 41.8 10.98 0.432
03:03 1022 30.18 851 25.13 10.5 50.8 71 5.4 41.7 10.83 0.426
03:04 1022 30.18 851 25.13 10.4 50.7 71 5.3 41.6 10.74 0.423
03:05 1022 30.18 851 25.13 10.4 50.7 71 5.4 41.8 10.69 0.421
03:06 1022 30.18 851 25.13 10.3 50.5 71 5.4 41.7 10.56 0.416
03:07 1022 30.18 851 25.13 10.2 50.3 71 5.3 41.5 10.49 0.413
03:08 1022 30.18 851 25.13 10.2 50.3 71 5.3 41.5 10.49 0.413
03:09 1022 30.18 851 25.13 10.2 50.4 71 5.2 41.4 10.5 0.413
03:10 1022 30.18 851 25.13 10.3 50.5 71 5.2 41.4 10.53 0.415
03:11 1022 30.18 851 25.13 10.4 50.6 70 5.1 41.2 10.64 0.419
03:12 1022 30.18 851 25.13 10.4 50.8 69 5.1 41.2 10.69 0.421
03:13 1022 30.18 851 25.13 10.4 50.8 70 5.2 41.4 10.74 0.423
03:14 1022 30.18 851 25.13 10.3 50.6 71 5.4 41.6 10.65 0.419
03:15 1022 30.18 851 25.13 10.2 50.4 70 5 41 10.58 0.417
03:16 1022 30.18 851 25.13 10.4 50.6 68 4.8 40.6 10.61 0.418
03:17 1022 30.18 851 25.13 10.7 51.3 66 4.5 40.2 10.87 0.428
03:18 1022 30.18 851 25.13 11.1 52 64 4.6 40.2 11.29 0.444
03:19 1022 30.18 851 25.13 11.6 52.9 62 4.5 40.1 11.75 0.463
03:20 1022 30.18 851 25.13 12 53.6 59 4.3 39.7 12.11 0.477
03:21 1022 30.18 851 25.13 12.5 54.4 58 4.5 40.1 12.57 0.495
03:22 1022 30.18 851 25.13 12.7 54.9 59 5 41.1 12.84 0.506
03:23 1022 30.18 851 25.13 12.6 54.6 62 5.5 41.8 12.79 0.504
03:24 1022 30.18 851 25.13 12.3 54.1 61 5 41 12.55 0.494
03:25 1022 30.18 851 25.13 12.2 54 59 4.6 40.3 12.59 0.496
03:26 1022 30.18 851 25.13 12.5 54.5 57 4.4 40 12.82 0.505
03:27 1022 30.18 851 25.13 12.8 55 57 4.6 40.3 13.07 0.515
03:28 1022 30.18 851 25.13 13 55.3 56 4.5 40.2 13.21 0.52
03:29 1022 30.18 851 25.13 13.2 55.7 55 4.5 40 13.44 0.529
03:30 1022 30.18 851 25.13 13.4 56.2 55 4.6 40.2 13.67 0.538
03:31 1022 30.18 851 25.13 13.5 56.3 55 4.7 40.4 13.77 0.542
03:32 1022 30.18 851 25.13 13.5 56.3 54 4.6 40.2 13.76 0.542
03:33 1022 30.18 851 25.13 13.6 56.4 54 4.5 40.1 13.81 0.544
03:34 1022 30.18 851 25.13 13.6 56.5 53 4.4 39.9 13.88 0.546
03:35 1022 30.18 851 25.13 13.7 56.7 54 4.5 40.1 14 0.551
03:36 1022 30.18 851 25.13 13.8 56.8 53 4.6 40.2 14.03 0.552
03:37 1022 30.18 851 25.13 13.8 56.8 54 4.6 40.4 14 0.551
03:38 1022 30.18 851 25.13 13.8 56.8 53 4.5 40.1 13.99 0.551
03:39 1022 30.18 851 25.13 13.7 56.7 54 4.5 40.2 14.01 0.552
03:40 1022 30.18 851 25.13 13.7 56.7 54 4.6 40.2 13.97 0.55
03:41 1022 30.18 851 25.13 13.6 56.6 54 4.5 40.1 13.96 0.55
03:42 1022 30.18 851 25.13 13.6 56.4 55 4.7 40.5 13.81 0.544
03:43 1022 30.18 851 25.13 13.4 56.1 55 4.6 40.3 13.71 0.54
03:44 1022 30.18 851 25.13 13.3 56 55 4.6 40.3 13.67 0.538
03:45 1022 30.18 851 25.13 13.2 55.8 56 4.6 40.3 13.58 0.535
03:46 1022 30.18 851 25.13 13.2 55.7 56 4.6 40.3 13.53 0.533
03:47 1022 30.18 851 25.13 13.2 55.7 55 4.5 40.1 13.46 0.53
03:48 1022 30.18 851 25.13 13.2 55.7 55 4.4 39.9 13.44 0.529
03:49 1022 30.18 851 25.13 13.1 55.6 58 5.2 41.3 13.42 0.528
03:50 1022 30.18 851 25.13 12.8 55 59 4.9 40.9 13.11 0.516
03:51 1022 30.18 851 25.13 12.6 54.6 59 4.9 40.8 12.88 0.507
03:52 1022 30.18 851 25.13 12.6 54.6 57 4.3 39.7 12.83 0.505
03:53 1022 30.18 851 25.13 12.6 54.6 61 5.2 41.4 12.78 0.503
03:54 1022 30.18 851 25.13 12.1 53.8 63 5.4 41.6 12.39 0.488
03:55 1022 30.18 851 25.13 11.6 52.9 65 5.3 41.6 11.98 0.472
03:56 1022 30.18 851 25.13 11.2 52.2 67 5.4 41.7 11.57 0.456
03:57 1022 30.18 851 25.13 10.9 51.6 67 5.1 41.1 11.31 0.445
03:58 1022 30.18 851 25.13 10.9 51.7 65 4.7 40.4 11.31 0.445
03:59 1022 30.18 851 25.13 11.2 52.1 64 4.8 40.6 11.51 0.453
04:00 1022 30.18 851 25.13 11.2 52.2 65 5 40.9 11.51 0.453
04:01 1022 30.18 851 25.13 11.1 51.9 66 5.1 41.2 11.4 0.449
04:02 1022 30.18 851 25.13 10.9 51.7 67 5 41 11.27 0.444
04:03 1022 30.18 851 25.13 10.9 51.7 67 5 41 11.27 0.444
04:04 1022 30.18 851 25.13 10.9 51.7 66 5 40.9 11.27 0.444
04:05 1022 30.18 851 25.13 10.9 51.6 66 4.8 40.7 11.25 0.443
04:06 1022 30.18 851 25.13 11 51.8 65 4.8 40.6 11.37 0.448
04:07 1022 30.18 851 25.13 11 51.9 65 4.7 40.5 11.37 0.448
04:08 1022 30.18 851 25.13 11.1 52.1 64 4.7 40.4 11.47 0.452
04:09 1022 30.18 851 25.13 11.2 52.2 64 4.7 40.5 11.53 0.454
04:10 1022 30.18 851 25.13 11.3 52.3 64 4.7 40.5 11.61 0.457
04:11 1022 30.18 851 25.13 11.4 52.4 63 4.6 40.2 11.67 0.459
04:12 1022 30.18 851 25.13 11.5 52.7 62 4.5 40.1 11.78 0.464
04:13 1022 30.18 851 25.13 11.6 52.9 61 4.3 39.8 11.91 0.469
04:14 1022 30.18 851 25.13 11.9 53.4 59 4.2 39.6 12.11 0.477
04:15 1022 30.18 851 25.13 12.1 53.7 59 4.3 39.7 12.34 0.486
04:16 1022 30.18 851 25.13 12.2 54 58 4.4 39.8 12.47 0.491
04:17 1022 30.18 851 25.13 12.2 54 59 4.6 40.2 12.49 0.492
04:18 1022 30.18 851 25.13 12.1 53.8 60 4.7 40.5 12.36 0.487
04:19 1022 30.18 851 25.13 11.9 53.5 59 4.3 39.7 12.25 0.482
04:20 1022 30.18 851 25.13 12.1 53.7 58 4.2 39.5 12.32 0.485
04:21 1022 30.18 851 25.13 12.3 54.1 57 4 39.2 12.53 0.493
04:22 1022 30.18 851 25.13 12.6 54.6 56 4.2 39.6 12.78 0.503
04:23 1022 30.18 851 25.13 12.6 54.7 58 4.7 40.4 12.85 0.506
04:24 1022 30.18 851 25.13 12.4 54.3 58 4.4 39.9 12.66 0.498
04:25 1022 30.18 851 25.13 12.4 54.2 59 4.7 40.4 12.63 0.497
04:26 1022 30.18 851 25.13 12.3 54.1 58 4.4 39.8 12.54 0.494
04:27 1022 30.18 851 25.13 12.5 54.5 57 4.3 39.8 12.74 0.502
04:28 1022 30.18 851 25.13 12.8 55 55 4.1 39.3 12.95 0.51
04:29 1022 30.18 851 25.13 12.9 55.3 56 4.4 39.9 13.11 0.516
04:30 1022 30.18 851 25.13 13 55.4 58 5 41 13.22 0.52
04:31 1022 30.18 851 25.13 12.9 55.1 56 4.3 39.7 13.17 0.519
04:32 1022 30.18 851 25.13 13 55.4 55 4.1 39.4 13.3 0.524
04:33 1022 30.18 851 25.13 13.2 55.8 54 4.3 39.7 13.47 0.53
04:34 1022 30.18 851 25.13 13.3 55.9 54 4.3 39.7 13.58 0.535
04:35 1022 30.18 851 25.13 13.4 56.2 54 4.5 40 13.68 0.539
04:36 1022 30.18 851 25.13 13.4 56.1 55 4.6 40.2 13.67 0.538
04:37 1022 30.18 851 25.13 13.3 56 55 4.6 40.3 13.62 0.536
04:38 1022 30.18 851 25.13 13.3 55.9 55 4.4 40 13.53 0.533
04:39 1022 30.18 851 25.13 13.3 55.9 55 4.4 40 13.6 0.535
04:40 1022 30.18 851 25.13 13.3 55.9 54 4.4 39.9 13.57 0.534
04:41 1022 30.18 851 25.13 13.3 55.9 55 4.5 40.2 13.57 0.534
04:42 1022 30.18 851 25.13 13.3 55.9 55 4.5 40.1 13.57 0.534
04:43 1022 30.18 851 25.13 13.4 56.2 53 4.1 39.4 13.7 0.539
04:44 1022 30.18 851 25.13 13.6 56.5 53 4.2 39.6 13.87 0.546
04:45 1022 30.18 851 25.13 13.7 56.6 53 4.4 39.9 13.9 0.547
04:46 1022 30.18 851 25.13 13.6 56.6 54 4.6 40.2 13.87 0.546
04:47 1022 30.18 851 25.13 13.5 56.4 54 4.4 39.9 13.79 0.543
04:48 1022 30.18 851 25.13 13.5 56.3 53 4.3 39.7 13.78 0.543
04:49 1022 30.18 851 25.13 13.5 56.4 53 4.3 39.8 13.79 0.543
04:50 1022 30.18 851 25.13 13.5 56.4 54 4.4 39.9 13.77 0.542
04:51 1022 30.18 851 25.13 13.5 56.2 54 4.5 40.1 13.69 0.539
04:52 1022 30.18 851 25.13 13.3 55.9 56 4.7 40.4 13.56 0.534
04:53 1022 30.18 851 25.13 13.1 55.5 57 4.8 40.6 13.35 0.526
04:54 1022 30.18 851 25.13 12.9 55.2 57 4.5 40.1 13.22 0.52
04:55 1022 30.18 851 25.13 12.8 55 57 4.5 40 13.12 0.517
04:56 1022 30.18 851 25.13 12.8 55 57 4.6 40.4 13.09 0.515
04:57 1022 30.18 851 25.13 12.7 54.8 59 4.9 40.8 12.93 0.509
04:58 1022 30.18 851 25.13 12.4 54.3 60 4.9 40.7 12.8 0.504
04:59 1022 30.18 851 25.13 12.2 54 61 5 40.9 12.65 0.498
05:00 1022 30.18 851 25.13 12.1 53.7 62 5.1 41.1 12.46 0.491
05:01 1022 30.18 851 25.13 11.8 53.3 63 5.1 41.3 12.27 0.483
05:02 1022 30.18 851 25.13 11.5 52.8 66 5.5 41.8 12.07 0.475
05:03 1022 30.18 851 25.13 11.1 51.9 68 5.5 41.9 11.69 0.46
05:04 1022 30.18 851 25.13 10.5 50.9 70 5.3 41.5 11.13 0.438
05:05 1022 30.18 851 25.13 10.2 50.4 71 5.3 41.5 10.77 0.424
05:06 1022 30.18 851 25.13 10 50.1 72 5.3 41.5 10.58 0.417
05:07 1022 30.18 851 25.13 9.9 49.9 73 5.3 41.5 10.38 0.409
05:08 1022 30.18 851 25.13 9.8 49.7 72 5.1 41.2 10.28 0.405
05:09 1022 30.18 851 25.13 9.9 49.7 72 5 41.1 10.27 0.404
05:10 1022 30.18 851 25.13 10 50.1 71 5 41 10.36 0.408
05:11 1022 30.18 851 25.13 10.2 50.4 67 4.5 40.1 10.57 0.416
05:12 1022 30.18 851 25.13 10.7 51.2 67 4.8 40.6 10.95 0.431
05:13 1022 30.18 851 25.13 10.9 51.6 67 5 41 11.19 0.441
05:14 1022 30.18 851 25.13 11 51.7 66 4.8 40.7 11.25 0.443
05:15 1022 30.18 851 25.13 11 51.8 65 4.7 40.5 11.28 0.444
05:16 1022 30.18 851 25.13 11.1 52 66 5 41 11.35 0.447
05:17 1022 30.18 851 25.13 10.9 51.7 68 5.4 41.6 11.26 0.443
05:18 1022 30.18 851 25.13 10.5 50.9 70 5.4 41.7 10.85 0.427
05:19 1022 30.18 851 25.13 10.2 50.4 70 5.1 41.2 10.57 0.416
05:20 1022 30.18 851 25.13 10.1 50.3 70 5 41 10.5 0.413
05:21 1022 30.18 851 25.13 10.2 50.4 67 4.5 40 10.53 0.415
05:22 1022 30.18 851 25.13 10.6 51 67 4.7 40.5 10.82 0.426
05:23 1022 30.18 851 25.13 10.6 51.1 69 5.2 41.4 10.88 0.428
05:24 1022 30.18 851 25.13 10.4 50.6 71 5.4 41.7 10.73 0.422
05:25 1022 30.18 851 25.13 10.1 50.2 72 5.2 41.4 10.53 0.415
05:26 1022 30.18 851 25.13 10 50.1 72 5.2 41.4 10.42 0.41
05:27 1022 30.18 851 25.13 10 50 71 5 40.9 10.38 0.409
05:28 1022 30.18 851 25.13 10.1 50.2 71 5 41.1 10.45 0.411
05:29 1022 30.18 851 25.13 10.3 50.5 69 4.8 40.7 10.58 0.417
05:30 1022 30.18 851 25.13 10.4 50.8 69 5.1 41.2 10.72 0.422
05:31 1022 30.18 851 25.13 10.5 51 66 4.6 40.2 10.79 0.425
05:32 1022 30.18 851 25.13 10.9 51.6 64 4.5 40 11.13 0.438
05:33 1022 30.18 851 25.13 11.3 52.3 64 4.8 40.6 11.47 0.452
05:34 1022 30.18 851 25.13 11.4 52.4 65 5.1 41.3 11.6 0.457
05:35 1022 30.18 851 25.13 11.1 51.9 67 5.3 41.5 11.4 0.449
05:36 1022 30.18 851 25.13 10.7 51.3 70 5.4 41.8 11.13 0.438
05:37 1022 30.18 851 25.13 10.4 50.8 71 5.4 41.7 10.82 0.426
05:38 1022 30.18 851 25.13 10.2 50.4 71 5.3 41.5 10.63 0.419
05:39 1022 30.18 851 25.13 10.1 50.2 72 5.4 41.7 10.49 0.413
05:40 1022 30.18 851 25.13 9.9 49.9 73 5.2 41.4 10.33 0.407
05:41 1022 30.18 851 25.13 9.9 49.8 73 5.3 41.5 10.28 0.405
05:42 1022 30.18 851 25.13 9.9 49.8 73 5.3 41.5 10.28 0.405
05:43 1022 30.18 851 25.13 9.9 49.8 73 5.3 41.5 10.28 0.405
05:44 1022 30.18 851 25.13 9.9 49.9 72 5.1 41.3 10.3 0.406
05:45 1022 30.18 851 25.13 10 50 71 5 40.9 10.32 0.406
05:46 1022 30.18 851 25.13 10.1 50.1 71 5 41 10.38 0.409
05:47 1022 30.18 851 25.13 10.1 50.2 72 5.2 41.4 10.39 0.409
05:48 1022 30.18 851 25.13 10 50 72 5.1 41.2 10.36 0.408
05:49 1022 30.18 851 25.13 10 49.9 72 5.3 41.5 10.36 0.408
05:50 1022 30.18 851 25.13 9.9 49.7 73 5.3 41.5 10.27 0.404
05:51 1022 30.18 851 25.13 9.8 49.7 74 5.4 41.7 10.23 0.403
05:52 1022 30.18 851 25.13 9.7 49.4 75 5.5 41.8 10.15 0.4
05:53 1022 30.18 851 25.13 9.6 49.4 75 5.4 41.8 10.09 0.397
05:54 1022 30.18 851 25.13 9.7 49.4 74 5.2 41.4 10.02 0.394
05:55 1022 30.18 851 25.13 9.7 49.5 74 5.3 41.5 10.1 0.398
05:56 1022 30.18 851 25.13 9.8 49.7 74 5.4 41.6 10.14 0.399
05:57 1022 30.18 851 25.13 9.8 49.7 74 5.4 41.6 10.23 0.403
05:58 1022 30.18 851 25.13 9.9 49.8 73 5.3 41.6 10.23 0.403
05:59 1022 30.18 851 25.13 10 50 72 5.2 41.4 10.29 0.405
06:00 1022 30.18 851 25.13 10.1 50.2 72 5.2 41.4 10.43 0.411
06:01 1022 30.18 851 25.13 10.2 50.4 71 5.3 41.5 10.54 0.415
06:02 1022 30.18 851 25.13 10.3 50.5 72 5.5 41.8 10.58 0.417
06:03 1022 30.18 851 25.13 10.3 50.5 73 5.6 42.1 10.59 0.417
06:04 1022 30.18 851 25.13 10.1 50.1 74 5.6 42.1 10.45 0.411
06:05 1022 30.18 851 25.13 10 50 74 5.5 42 10.38 0.409
06:06 1022 30.18 851 25.13 10.1 50.1 73 5.4 41.8 10.41 0.41
06:07 1022 30.18 851 25.13 10.2 50.4 72 5.5 41.8 10.52 0.414
06:08 1022 30.18 851 25.13 10.3 50.5 73 5.6 42.2 10.64 0.419
06:09 1022 30.18 851 25.13 10.3 50.6 72 5.6 42.1 10.72 0.422
06:10 1022 30.18 851 25.13 10.5 50.8 72 5.6 42.1 10.8 0.425
06:11 1022 30.18 851 25.13 10.5 50.9 72 5.7 42.3 10.88 0.428
06:12 1022 30.18 851 25.13 10.6 51.1 70 5.5 41.8 10.99 0.433
06:13 1022 30.18 851 25.13 10.8 51.4 71 5.7 42.3 11.11 0.437
06:14 1022 30.18 851 25.13 10.9 51.6 71 5.8 42.5 11.22 0.442
06:15 1022 30.18 851 25.13 10.9 51.6 71 6 42.7 11.24 0.443
06:16 1022 30.18 851 25.13 10.9 51.6 72 6 42.7 11.25 0.443
06:17 1022 30.18 851 25.13 10.9 51.5 72 6 42.8 11.22 0.442
06:18 1022 30.18 851 25.13 10.9 51.5 71 5.9 42.6 11.22 0.442
06:19 1022 30.18 851 25.13 10.9 51.5 71 5.9 42.6 11.23 0.442
06:20 1022 30.18 851 25.13 10.9 51.6 72 6.1 43 11.27 0.444
06:21 1022 30.18 851 25.13 10.9 51.6 73 6.3 43.3 11.25 0.443
06:22 1022 30.18 851 25.13 10.8 51.5 70 5.7 42.2 11.19 0.441
06:23 1022 30.18 851 25.13 11 51.9 69 5.6 42 11.34 0.446
06:24 1022 30.18 851 25.13 11.3 52.4 67 5.4 41.6 11.55 0.455
06:25 1022 30.18 851 25.13 11.6 52.8 68 6 42.8 11.75 0.463
06:26 1022 30.18 851 25.13 11.5 52.7 70 6.3 43.3 11.73 0.462
06:27 1022 30.18 851 25.13 11.3 52.3 70 5.9 42.7 11.58 0.456
06:28 1022 30.18 851 25.13 11.3 52.3 69 5.9 42.6 11.55 0.455
06:29 1022 30.18 851 25.13 11.3 52.3 69 5.9 42.6 11.59 0.456
06:30 1022 30.18 851 25.13 11.3 52.3 71 6.1 43.1 11.58 0.456
06:31 1022 30.18 851 25.13 11.1 52 72 6.2 43.2 11.45 0.451
06:32 1022 30.18 851 25.13 11 51.7 72 6.1 43 11.31 0.445
06:33 1022 30.18 851 25.13 10.8 51.5 72 6.1 42.9 11.23 0.442
06:34 1022 30.18 851 25.13 10.8 51.4 73 6.1 43 11.11 0.437
06:35 1022 30.18 851 25.13 10.7 51.3 72 5.9 42.7 11.1 0.437
06:36 1022 30.18 851 25.13 10.7 51.3 71 5.8 42.4 11.1 0.437
06:37 1022 30.18 851 25.13 10.8 51.5 72 6 42.8 11.15 0.439
06:38 1022 30.18 851 25.13 10.8 51.4 72 6 42.8 11.14 0.439
06:39 1022 30.18 851 25.13 10.8 51.4 70 5.6 42.1 11.12 0.438
06:40 1022 30.18 851 25.13 11 51.7 70 5.7 42.3 11.24 0.443
06:41 1022 30.18 851 25.13 11.1 51.9 71 6 42.8 11.34 0.446
06:42 1022 30.18 851 25.13 11 51.7 72 6.1 43 11.29 0.444
06:43 1022 30.18 851 25.13 11 51.7 68 5.4 41.7 11.28 0.444
06:44 1022 30.18 851 25.13 11.3 52.3 64 4.7 40.5 11.58 0.456
06:45 1022 30.18 851 25.13 11.7 53.1 67 5.8 42.4 11.98 0.472
06:46 1022 30.18 851 25.13 11.8 53.2 70 6.4 43.5 12.03 0.474
06:47 1022 30.18 851 25.13 11.5 52.6 70 6.2 43.2 11.83 0.466
06:48 1022 30.18 851 25.13 11.4 52.6 69 6.1 42.9 11.78 0.464
06:49 1022 30.18 851 25.13 11.5 52.6 70 6.2 43.2 11.84 0.466
06:50 1022 30.18 851 25.13 11.5 52.6 70 6.2 43.2 11.88 0.468
06:51 1022 30.18 851 25.13 11.5 52.6 69 6 42.8 11.84 0.466
06:52 1022 30.18 851 25.13 11.5 52.8 68 5.8 42.5 11.93 0.47
06:53 1022 30.18 851 25.13 11.7 53.1 67 5.8 42.5 12.07 0.475
06:54 1022 30.18 851 25.13 11.9 53.5 68 6.2 43.1 12.23 0.481
06:55 1022 30.18 851 25.13 12 53.6 66 6 42.8 12.31 0.485
06:56 1022 30.18 851 25.13 12 53.7 65 5.7 42.2 12.35 0.486
06:57 1022 30.18 851 25.13 12.2 54 66 6.2 43.1 12.55 0.494
06:58 1022 30.18 851 25.13 12.3 54.2 66 6.3 43.3 12.6 0.496
06:59 1022 30.18 851 25.13 12.4 54.2 66 6.2 43.2 12.65 0.498
07:00 1022 30.18 851 25.13 12.4 54.3 66 6.3 43.4 12.69 0.5
07:01 1022 30.18 851 25.13 12.4 54.3 66 6.2 43.2 12.69 0.5
07:02 1022 30.18 851 25.13 12.3 54.2 67 6.4 43.5 12.67 0.499
07:03 1022 30.18 851 25.13 12.2 54 68 6.6 43.9 12.61 0.496
07:04 1022 30.18 852 25.16 12.1 53.8 70 6.9 44.4 12.5 0.492
07:05 1022 30.18 851 25.13 11.8 53.3 70 6.7 44 12.32 0.485
07:06 1022 30.18 852 25.16 11.7 53.1 71 6.6 44 12.15 0.478
07:07 1022 30.18 851 25.13 11.7 53 71 6.5 43.7 12.12 0.477
07:08 1022 30.18 852 25.16 11.7 53 71 6.6 43.9 12.04 0.474
07:09 1022 30.18 852 25.16 11.7 53 71 6.6 43.9 12.01 0.473
07:10 1022 30.18 852 25.16 11.7 53 71 6.7 44 12.03 0.474
07:11 1022 30.18 852 25.16 11.7 53 71 6.6 43.8 12.05 0.474
07:12 1022 30.18 851 25.13 11.8 53.2 70 6.5 43.6 12.09 0.476
07:13 1022 30.18 851 25.13 11.8 53.2 71 6.8 44.2 12.2 0.48
07:14 1022 30.18 852 25.16 11.8 53.2 72 6.8 44.3 12.2 0.48
07:15 1022 30.18 852 25.16 11.8 53.2 72 6.9 44.4 12.23 0.481
07:16 1022 30.18 851 25.13 11.9 53.5 70 6.7 44 12.28 0.483
07:17 1022 30.18 851 25.13 12.1 53.9 70 6.8 44.2 12.45 0.49
07:18 1022 30.18 851 25.13 12.3 54.1 71 7.1 44.8 12.55 0.494
07:19 1022 30.18 851 25.13 12.3 54.2 68 6.6 43.9 12.67 0.499
07:20 1022 30.18 851 25.13 12.5 54.5 65 6.2 43.1 12.8 0.504
07:21 1022 30.18 852 25.16 12.8 55 65 6.4 43.6 13.03 0.513
07:22 1022 30.18 852 25.16 12.9 55.3 66 6.8 44.2 13.19 0.519
07:23 1022 30.18 852 25.16 13 55.4 67 7 44.6 13.33 0.525
07:24 1022 30.18 852 25.16 13.1 55.5 65 6.7 44.1 13.38 0.527
07:25 1022 30.18 852 25.16 13.1 55.6 65 6.8 44.3 13.44 0.529
07:26 1022 30.18 852 25.16 13.2 55.8 67 7.2 45 13.53 0.533
07:27 1022 30.18 852 25.16 13.2 55.8 66 7.1 44.9 13.6 0.535
07:28 1022 30.18 852 25.16 13.2 55.8 66 7 44.5 13.58 0.535
07:29 1022 30.18 851 25.13 13.2 55.8 66 7.2 44.9 13.6 0.535
07:30 1022 30.18 851 25.13 13.2 55.8 65 6.9 44.4 13.6 0.535
07:31 1022 30.18 852 25.16 13.3 55.9 67 7.3 45.2 13.64 0.537
07:32 1022 30.18 852 25.16 13.3 55.9 68 7.5 45.5 13.64 0.537
07:33 1022 30.18 851 25.13 13.2 55.7 69 7.6 45.7 13.63 0.537
07:34 1022 30.18 851 25.13 13.1 55.6 70 7.9 46.1 13.58 0.535
07:35 1022 30.18 851 25.13 13.1 55.5 70 7.8 46 13.51 0.532
07:36 1022 30.18 851 25.13 13 55.4 70 7.7 45.9 13.47 0.53
07:37 1022 30.18 851 25.13 13 55.5 71 7.9 46.1 13.51 0.532
07:38 1022 30.18 851 25.13 13.1 55.5 71 8 46.4 13.51 0.532
07:39 1022 30.18 851 25.13 13.1 55.5 72 8.1 46.6 13.51 0.532
07:40 1022 30.18 851 25.13 13.2 55.7 68 7.5 45.5 13.53 0.533
07:41 1022 30.18 851 25.13 13.3 56 68 7.6 45.7 13.66 0.538
07:42 1022 30.18 851 25.13 13.5 56.4 67 7.5 45.5 13.86 0.546
07:43 1022 30.18 851 25.13 13.7 56.7 67 7.7 45.8 14.03 0.552
07:44 1022 30.18 851 25.13 13.9 57 64 7.3 45.2 14.13 0.556
07:45 1022 30.18 851 25.13 14.1 57.3 63 7.3 45.1 14.34 0.565
07:46 1022 30.18 851 25.13 14.2 57.6 62 7 44.6 14.51 0.571
07:47 1022 30.18 851 25.13 14.4 57.9 62 7.4 45.2 14.68 0.578
07:48 1022 30.18 851 25.13 14.5 58.1 63 7.7 45.8 14.77 0.581
07:49 1022 30.18 851 25.13 14.6 58.3 64 7.9 46.2 14.96 0.589
07:50 1022 30.18 851 25.13 14.7 58.4 62 7.5 45.6 15 0.591
07:51 1022 30.18 851 25.13 14.7 58.5 61 7.4 45.3 15.08 0.594
07:52 1022 30.18 851 25.13 14.8 58.6 62 7.6 45.7 15.19 0.598
07:53 1022 30.18 851 25.13 14.9 58.8 62 7.8 46.1 15.29 0.602
07:54 1022 30.18 851 25.13 14.9 58.8 60 7.2 45 15.32 0.603
07:55 1022 30.18 851 25.13 15 58.9 59 7.2 45 15.36 0.605
07:56 1022 30.18 851 25.13 15 59 60 7.4 45.4 15.4 0.606
07:57 1022 30.18 851 25.13 15 59.1 61 7.6 45.7 15.44 0.608
07:58 1022 30.18 851 25.13 15.1 59.1 63 8.2 46.8 15.5 0.61
07:59 1022 30.18 851 25.13 15 59 65 8.5 47.2 15.48 0.609
08:00 1022 30.18 851 25.13 15 59 63 8.2 46.7 15.49 0.61
08:01 1022 30.18 851 25.13 15.1 59.2 63 8.3 46.9 15.5 0.61
08:02 1022 30.18 851 25.13 15.2 59.3 63 8.3 46.9 15.58 0.613
08:03 1022 30.18 851 25.13 15.2 59.4 63 8.4 47.1 15.64 0.616
08:04 1022 30.18 851 25.13 15.3 59.5 64 8.5 47.3 15.67 0.617
08:05 1022 30.18 852 25.16 15.3 59.6 64 8.6 47.5 15.73 0.619
08:06 1022 30.18 852 25.16 15.3 59.6 65 8.9 48 15.76 0.62
08:07 1022 30.18 852 25.16 15.4 59.7 66 9.2 48.6 15.8 0.622
08:08 1022 30.18 851 25.13 15.4 59.6 66 9.1 48.4 15.79 0.622
08:09 1022 30.18 852 25.16 15.4 59.8 64 8.7 47.6 15.8 0.622
08:10 1022 30.18 852 25.16 15.5 59.9 64 8.9 47.9 15.85 0.624
08:11 1022 30.18 851 25.13 15.5 59.9 64 8.9 48 15.93 0.627
08:12 1022 30.18 851 25.13 15.6 60.1 62 8.4 47.1 15.98 0.629
08:13 1022 30.18 851 25.13 15.6 60.1 64 9 48.2 16.02 0.631
08:14 1022 30.18 852 25.16 15.7 60.2 65 9.2 48.6 16.05 0.632
08:15 1022 30.18 852 25.16 15.7 60.2 65 9.2 48.6 16.12 0.635
08:16 1022 30.18 851 25.13 15.7 60.3 64 9.1 48.4 16.16 0.636
08:17 1022 30.18 852 25.16 15.7 60.3 65 9.3 48.8 16.17 0.637
08:18 1022 30.18 852 25.16 15.7 60.3 65 9.2 48.5 16.17 0.637
08:19 1022 30.18 852 25.16 15.7 60.3 66 9.4 48.9 16.17 0.637
08:20 1022 30.18 852 25.16 15.7 60.3 66 9.4 48.9 16.17 0.637
08:21 1022 30.18 852 25.16 15.8 60.4 66 9.6 49.2 16.15 0.636
08:22 1022 30.18 852 25.16 15.7 60.3 68 10 50 16.19 0.637
08:23 1022 30.18 852 25.16 15.7 60.2 70 10.4 50.6 16.15 0.636
08:24 1022 30.18 852 25.16 15.6 60.2 71 10.5 50.9 16.14 0.635
08:25 1022 30.18 852 25.16 15.6 60.1 71 10.4 50.8 16.06 0.632
08:26 1022 30.18 852 25.16 15.5 60 71 10.3 50.6 16.03 0.631
08:27 1022 30.18 852 25.16 15.5 59.9 70 10.2 50.3 15.95 0.628
08:28 1022 30.18 852 25.16 15.5 59.9 70 10 50 15.89 0.626
08:29 1022 30.18 852 25.16 15.5 59.9 70 10.2 50.4 15.9 0.626
08:30 1022 30.18 852 25.16 15.5 59.9 69 9.8 49.7 15.91 0.626
08:31 1022 30.18 852 25.16 15.5 59.9 70 10.1 50.3 15.93 0.627
08:32 1022 30.18 852 25.16 15.5 59.9 69 9.9 49.8 15.96 0.628
08:33 1022 30.18 852 25.16 15.6 60.2 68 9.9 49.8 16.01 0.63
08:34 1022 30.18 852 25.16 15.8 60.4 72 10.9 51.6 16.21 0.638
08:35 1022 30.18 852 25.16 16 60.8 72 11.1 51.9 16.42 0.646
08:36 1022 30.18 852 25.16 16.2 61.1 64 9.4 48.9 16.59 0.653
08:37 1022 30.18 852 25.16 16.5 61.7 65 10.1 50.1 16.78 0.661
08:38 1022 30.18 852 25.16 16.8 62.2 63 9.7 49.5 17.13 0.674
08:39 1022 30.18 852 25.16 17.1 62.7 66 10.8 51.4 17.46 0.687
08:40 1022 30.18 852 25.16 17.4 63.3 61 10 49.9 17.78 0.7
08:41 1022 30.18 852 25.16 17.7 63.9 57 9.1 48.4 18.1 0.713
08:42 1022 30.18 852 25.16 18 64.4 60 10.3 50.6 18.43 0.726
08:43 1022 30.18 852 25.16 18.3 65 55 9.2 48.6 18.7 0.736
08:44 1022 30.18 852 25.16 18.5 65.4 57 10 50 19.01 0.748
08:45 1022 30.18 852 25.16 18.8 65.8 52 8.8 47.9 19.29 0.759
08:46 1022 30.18 852 25.16 19.1 66.3 58 10.6 51.1 19.58 0.771
08:47 1022 30.18 852 25.16 19.2 66.6 56 10.3 50.6 19.82 0.78
08:48 1022 30.18 852 25.16 19.4 66.8 43 6.7 44 19.9 0.783
08:49 1022 30.18 852 25.16 19.6 67.2 47 8.2 46.7 20.04 0.789
08:50 1022 30.18 852 25.16 19.7 67.5 39 5.6 42.1 20.22 0.796
08:51 1022 30.18 852 25.16 19.9 67.8 45 7.7 45.9 20.39 0.803
08:52 1022 30.18 852 25.16 20.1 68.2 48 9 48.2 20.58 0.81
08:53 1022 30.18 852 25.16 20.3 68.5 38 5.7 42.3 20.77 0.818
08:54 1022 30.18 852 25.16 20.3 68.5 43 7.4 45.4 20.86 0.821
08:55 1022 30.18 852 25.16 20.4 68.7 44 7.9 46.3 21 0.827
08:56 1022 30.18 852 25.16 20.5 68.8 45 8.4 47.2 21.11 0.831
08:57 1023 30.21 852 25.16 20.5 68.9 44 8 46.3 21.18 0.834
08:58 1022 30.18 852 25.16 20.6 69.1 48 9.2 48.6 21.36 0.841
08:59 1022 30.18 852 25.16 20.8 69.4 42 7.7 45.8 21.47 0.845
09:00 1022 30.18 852 25.16 20.9 69.6 44 8.3 47 21.42 0.843
09:01 1022 30.18 852 25.16 20.9 69.6 41 7.4 45.2 21.38 0.842
09:02 1022 30.18 852 25.16 20.7 69.3 42 7.4 45.3 21.24 0.836
09:03 1022 30.18 852 25.16 20.5 68.9 47 8.9 48 20.95 0.825
09:04 1022 30.18 852 25.16 20.3 68.6 42 7.1 44.7 20.68 0.814
09:05 1022 30.18 852 25.16 20.1 68.2 46 8.2 46.8 20.4 0.803
09:06 1022 30.18 852 25.16 19.9 67.8 50 9.2 48.5 20.12 0.792
09:07 1022 30.18 852 25.16 19.6 67.3 46 7.8 46 19.81 0.78
09:08 1022 30.18 852 25.16 19.5 67 47 8.1 46.6 19.66 0.774
09:09 1022 30.18 852 25.16 19.4 66.8 44 7 44.6 19.53 0.769
09:10 1022 30.18 852 25.16 19.4 66.9 49 8.4 47.1 19.6 0.772
09:11 1022 30.18 852 25.16 19.5 67 47 8 46.4 19.72 0.776
09:12 1022 30.18 852 25.16 19.6 67.2 49 8.6 47.5 19.79 0.779
09:13 1022 30.18 852 25.16 19.7 67.4 41 6.1 43 19.88 0.783
09:14 1022 30.18 852 25.16 19.7 67.4 45 7.5 45.5 19.8 0.78
09:15 1022 30.18 852 25.16 19.7 67.4 43 7 44.6 19.84 0.781
09:16 1022 30.18 852 25.16 19.7 67.4 48 8.4 47.1 19.92 0.784
09:17 1022 30.18 852 25.16 19.8 67.6 41 6.2 43.1 19.96 0.786
09:18 1022 30.18 852 25.16 19.9 67.7 47 8.2 46.8 20.08 0.791
09:19 1022 30.18 852 25.16 20 67.9 42 6.9 44.3 20.22 0.796
09:20 1023 30.21 852 25.16 20.1 68.1 40 6.1 42.9 20.29 0.799
09:21 1023 30.21 852 25.16 20.2 68.3 36 4.9 40.9 20.34 0.801
09:22 1023 30.21 852 25.16 20.2 68.4 44 7.9 46.2 20.35 0.801
09:23 1023 30.21 852 25.16 20.3 68.5 39 5.9 42.7 20.44 0.805
09:24 1023 30.21 852 25.16 20.3 68.5 42 7.1 44.8 20.39 0.803
09:25 1023 30.21 852 25.16 20.2 68.4 46 8.3 46.9 20.41 0.804
09:26 1023 30.21 852 25.16 20.3 68.5 43 7.6 45.6 20.44 0.805
09:27 1023 30.21 852 25.16 20.3 68.5 38 5.5 42 20.42 0.804
09:28 1023 30.21 852 25.16 20.3 68.5 40 6.5 43.7 20.2 0.795
09:29 1023 30.21 852 25.16 20.2 68.3 38 5.4 41.7 20.05 0.789
09:30 1023 30.21 852 25.16 20 67.9 45 8 46.3 19.89 0.783
09:31 1023 30.21 852 25.16 19.9 67.7 46 7.9 46.2 19.86 0.782
09:32 1023 30.21 852 25.16 19.8 67.6 45 7.8 46 19.79 0.779
09:33 1023 30.21 852 25.16 19.8 67.6 49 9 48.1 19.76 0.778
09:34 1023 30.21 852 25.16 19.7 67.5 43 6.9 44.3 19.74 0.777
09:35 1023 30.21 852 25.16 19.6 67.4 42 6.5 43.6 19.57 0.77
09:36 1023 30.21 852 25.16 19.5 67 44 7.1 44.7 19.44 0.765
09:37 1023 30.21 852 25.16 19.4 66.9 45 7.3 45.1 19.39 0.763
09:38 1023 30.21 852 25.16 19.4 67 53 9.8 49.6 19.44 0.765
09:39 1023 30.21 852 25.16 19.5 67.2 47 8.1 46.5 19.61 0.772
09:40 1023 30.21 852 25.16 19.6 67.3 42 6.3 43.4 19.57 0.77
09:41 1023 30.21 852 25.16 19.7 67.4 47 8.3 46.9 19.67 0.774
09:42 1023 30.21 852 25.16 19.7 67.5 44 7.3 45.1 19.71 0.776
09:43 1023 30.21 852 25.16 19.8 67.7 44 7.2 45 19.81 0.78
09:44 1023 30.21 852 25.16 20 68 43 7.1 44.8 20 0.787
09:45 1023 30.21 852 25.16 20.1 68.1 41 6.5 43.8 20.05 0.789
09:46 1023 30.21 852 25.16 20.1 68.2 39 6 42.9 20.05 0.789
09:47 1023 30.21 852 25.16 20.2 68.3 43 7.5 45.5 20.17 0.794
09:48 1023 30.21 852 25.16 20.3 68.6 44 7.7 45.8 20.33 0.8
09:49 1023 30.21 852 25.16 20.4 68.7 41 6.8 44.2 20.37 0.802
09:50 1023 30.21 852 25.16 20.4 68.7 40 6.4 43.6 20.23 0.796
09:51 1023 30.21 852 25.16 20.4 68.7 39 6.3 43.3 20.28 0.798
09:52 1023 30.21 852 25.16 20.3 68.6 40 6.3 43.3 20.3 0.799
09:53 1023 30.21 852 25.16 20.3 68.5 38 5.7 42.3 20.33 0.8
09:54 1023 30.21 852 25.16 20.4 68.7 37 5.3 41.6 20.37 0.802
09:55 1023 30.21 852 25.16 20.4 68.6 37 5.3 41.6 20.36 0.802
09:56 1023 30.21 852 25.16 20.3 68.5 38 5.6 42 20.4 0.803
09:57 1023 30.21 852 25.16 20.2 68.4 39 6.1 43 20.44 0.805
09:58 1023 30.21 852 25.16 20.3 68.5 39 6.1 43 20.5 0.807
09:59 1023 30.21 852 25.16 20.2 68.4 46 8.3 47 20.56 0.809
10:00 1023 30.21 852 25.16 20.2 68.4 46 8.4 47.1 20.55 0.809
10:01 1023 30.21 852 25.16 20.3 68.5 41 6.6 43.9 20.65 0.813
10:02 1023 30.21 852 25.16 20.4 68.7 37 5.5 42 20.79 0.819
10:03 1023 30.21 852 25.16 20.4 68.8 42 7.3 45.1 20.78 0.818
10:04 1023 30.21 852 25.16 20.4 68.7 39 6.2 43.1 20.85 0.821
10:05 1023 30.21 852 25.16 20.5 68.8 41 6.9 44.4 20.87 0.822
10:06 1023 30.21 852 25.16 20.5 68.8 39 6.1 42.9 20.92 0.824
10:07 1023 30.21 852 25.16 20.5 68.8 39 6.1 42.9 20.92 0.824
10:08 1023 30.21 852 25.16 20.6 69 39 6.3 43.3 21 0.827
10:09 1023 30.21 852 25.16 20.6 69.1 43 7.8 46.1 21.06 0.829
10:10 1023 30.21 852 25.16 20.6 69 43 7.6 45.8 21.06 0.829
10:11 1023 30.21 852 25.16 20.6 69.1 36 5.2 41.4 20.99 0.826
10:12 1023 30.21 852 25.16 20.7 69.2 45 8.4 47.1 20.99 0.826
10:13 1023 30.21 852 25.16 20.9 69.7 39 6.5 43.8 21.23 0.836
10:14 1023 30.21 852 25.16 21.1 70 40 7.2 45 21.42 0.843
10:15 1023 30.21 852 25.16 21.4 70.4 39 7 44.7 21.68 0.854
10:16 1023 30.21 852 25.16 21.6 70.8 36 5.9 42.7 21.82 0.859
10:17 1023 30.21 852 25.16 21.7 71 39 7.4 45.4 21.9 0.862
10:18 1023 30.21 852 25.16 21.8 71.2 33 5.2 41.3 21.91 0.863
10:19 1023 30.21 852 25.16 21.7 71.1 34 5.2 41.4 21.65 0.852
10:20 1023 30.21 852 25.16 21.5 70.7 38 6.7 44 21.47 0.845
10:21 1023 30.21 852 25.16 21.5 70.7 40 7.4 45.3 21.58 0.85
10:22 1023 30.21 852 25.16 21.6 70.9 37 6.6 43.8 21.72 0.855
10:23 1023 30.21 852 25.16 21.6 70.9 35 5.8 42.5 21.76 0.857
10:24 1023 30.21 852 25.16 21.7 71 42 8.2 46.8 21.8 0.858
10:25 1023 30.21 852 25.16 21.7 71.1 43 8.6 47.6 21.88 0.861
10:26 1023 30.21 852 25.16 21.7 71.1 41 8.1 46.7 21.89 0.862
10:27 1023 30.21 852 25.16 21.4 70.5 39 7.1 44.9 21.64 0.852
10:28 1023 30.21 852 25.16 21.1 70 38 6.5 43.7 21.38 0.842
10:29 1023 30.21 852 25.16 20.9 69.6 47 9.2 48.6 21.18 0.834
10:30 1023 30.21 852 25.16 20.7 69.3 40 6.9 44.4 21.03 0.828
10:31 1023 30.21 852 25.16 20.6 69 43 7.6 45.6 20.85 0.821
10:32 1023 30.21 852 25.16 20.4 68.8 38 5.9 42.6 20.73 0.816
10:33 1023 30.21 852 25.16 20.2 68.4 44 7.7 45.8 20.47 0.806
10:34 1023 30.21 852 25.16 20 68 47 8.6 47.5 20.35 0.801
10:35 1023 30.21 852 25.16 19.8 67.6 48 8.6 47.5 20.12 0.792
10:36 1023 30.21 852 25.16 19.6 67.2 50 8.9 48 19.95 0.785
10:37 1023 30.21 852 25.16 19.5 67 49 8.6 47.5 19.83 0.781
10:38 1023 30.21 852 25.16 19.5 67.1 51 9.4 48.9 19.87 0.782
10:39 1023 30.21 852 25.16 19.7 67.5 51 9.5 49.1 20.08 0.791
10:40 1023 30.21 852 25.16 20 68.1 51 9.8 49.6 20.35 0.801
10:41 1023 30.21 852 25.16 20.3 68.5 53 10.5 51 20.55 0.809
10:42 1023 30.21 852 25.16 20.4 68.7 49 9.5 49.1 20.62 0.812
10:43 1023 30.21 852 25.16 20.3 68.5 48 9 48.2 20.58 0.81
10:44 1023 30.21 852 25.16 20.2 68.4 51 9.9 49.7 20.56 0.809
10:45 1023 30.21 852 25.16 20.2 68.4 47 8.6 47.5 20.58 0.81
10:46 1023 30.21 852 25.16 20.2 68.3 52 10.2 50.3 20.53 0.808
10:47 1023 30.21 852 25.16 20.1 68.1 53 10.4 50.8 20.45 0.805
10:48 1023 30.21 852 25.16 20 67.9 51 9.6 49.2 20.33 0.8
10:49 1023 30.21 852 25.16 19.9 67.8 53 10.1 50.2 20.24 0.797
10:50 1023 30.21 852 25.16 19.7 67.5 54 10.2 50.3 20.1 0.791
10:51 1023 30.21 852 25.16 19.6 67.2 55 10.3 50.5 19.97 0.786
10:52 1023 30.21 852 25.16 19.4 66.9 53 9.8 49.6 19.83 0.781
10:53 1023 30.21 852 25.16 19.2 66.6 53 9.6 49.3 19.64 0.773
10:54 1023 30.21 852 25.16 19 66.2 54 9.5 49.1 19.47 0.767
10:55 1023 30.21 852 25.16 18.8 65.9 52 9 48.1 19.29 0.759
10:56 1023 30.21 852 25.16 18.8 65.8 50 8.3 46.9 19.18 0.755
10:57 1023 30.21 852 25.16 18.7 65.7 54 9.4 48.9 19.13 0.753
10:58 1023 30.21 852 25.16 18.7 65.7 57 10.2 50.4 19.03 0.749
10:59 1023 30.21 852 25.16 18.6 65.5 54 9.2 48.5 18.93 0.745
11:00 1023 30.21 852 25.16 18.6 65.4 59 10.5 50.9 18.9 0.744
11:01 1023 30.21 852 25.16 18.7 65.7 60 10.9 51.7 19.06 0.75
11:02 1022 30.18 852 25.16 19 66.1 58 10.7 51.3 19.3 0.76
11:03 1022 30.18 852 25.16 19.3 66.7 58 10.9 51.6 19.69 0.775
11:04 1022 30.18 852 25.16 19.6 67.2 51 9.2 48.6 19.88 0.783
11:05 1022 30.18 852 25.16 19.9 67.7 45 7.6 45.7 20.08 0.791
11:06 1022 30.18 852 25.16 20.1 68.2 43 7.3 45.1 20.31 0.8
11:07 1022 30.18 852 25.16 20.4 68.7 42 7.1 44.8 20.63 0.812
11:08 1022 30.18 852 25.16 20.6 69.1 43 7.8 46 20.97 0.826
11:09 1022 30.18 852 25.16 20.9 69.7 39 6.7 44 21.31 0.839
11:10 1022 30.18 852 25.16 21.2 70.1 32 4.2 39.5 21.49 0.846
11:11 1022 30.18 852 25.16 21.3 70.3 34 5.1 41.3 21.53 0.848
11:12 1022 30.18 852 25.16 21.3 70.3 36 5.8 42.5 21.78 0.857
11:13 1022 30.18 852 25.16 21.5 70.7 33 4.5 40.1 21.87 0.861
11:14 1022 30.18 852 25.16 21.6 70.8 32 4.4 40 21.87 0.861
11:15 1022 30.18 852 25.16 21.6 70.8 37 6.4 43.5 22.03 0.867
11:16 1022 30.18 852 25.16 21.6 70.8 34 5.4 41.8 22.23 0.875
11:17 1022 30.18 852 25.16 21.7 71 46 9.7 49.4 22.35 0.88
11:18 1022 30.18 852 25.16 21.8 71.2 35 5.8 42.4 22.42 0.883
11:19 1022 30.18 852 25.16 21.8 71.3 40 7.7 45.8 22.4 0.882
11:20 1022 30.18 852 25.16 21.9 71.5 34 5.5 41.9 22.53 0.887
11:21 1022 30.18 851 25.13 21.9 71.5 44 9.3 48.7 22.64 0.891
11:22 1022 30.18 851 25.13 22 71.6 40 7.9 46.3 22.7 0.894
11:23 1022 30.18 851 25.13 22.1 71.7 42 8.8 47.8 22.88 0.901
11:24 1022 30.18 851 25.13 22.1 71.8 43 9.1 48.5 22.94 0.903
11:25 1022 30.18 851 25.13 22.1 71.7 40 8.2 46.7 22.88 0.901
11:26 1022 30.18 851 25.13 22 71.6 41 8.4 47.1 22.67 0.893
11:27 1022 30.18 851 25.13 22 71.5 44 9.5 49 22.61 0.89
11:28 1022 30.18 851 25.13 22.1 71.7 41 8.3 47 22.69 0.893
11:29 1022 30.18 851 25.13 22.1 71.9 42 8.9 47.9 22.7 0.894
11:30 1022 30.18 851 25.13 22.1 71.9 40 8.1 46.6 22.7 0.894
11:31 1022 30.18 851 25.13 22.1 71.8 37 6.8 44.2 22.73 0.895
11:32 1022 30.18 851 25.13 22.2 71.9 40 8 46.5 22.78 0.897
11:33 1022 30.18 851 25.13 22.3 72.1 41 8.4 47.2 22.92 0.902
11:34 1022 30.18 851 25.13 22.4 72.4 34 6 42.8 23.01 0.906
11:35 1022 30.18 851 25.13 22.4 72.3 37 7.3 45.1 22.96 0.904
11:36 1022 30.18 851 25.13 22.4 72.3 40 8.4 47.2 22.99 0.905
11:37 1022 30.18 851 25.13 22.4 72.2 37 7.1 44.8 22.95 0.904
11:38 1022 30.18 851 25.13 22.4 72.3 35 6.5 43.7 23 0.906
11:39 1022 30.18 851 25.13 22.6 72.6 35 6.5 43.7 23.07 0.908
11:40 1022 30.18 851 25.13 22.6 72.6 38 7.7 45.9 23.12 0.91
11:41 1022 30.18 851 25.13 22.6 72.7 40 8.7 47.7 23.19 0.913
11:42 1022 30.18 851 25.13 22.6 72.8 33 5.9 42.6 23.25 0.915
11:43 1022 30.18 851 25.13 22.7 72.8 35 6.8 44.2 23.43 0.922
11:44 1022 30.18 851 25.13 22.7 72.9 33 5.7 42.2 23.43 0.922
11:45 1022 30.18 851 25.13 22.7 72.9 34 6.4 43.5 23.41 0.922
11:46 1022 30.18 851 25.13 22.9 73.1 32 5.4 41.8 23.51 0.926
11:47 1022 30.18 851 25.13 22.9 73.2 33 6 42.8 23.5 0.925
11:48 1022 30.18 851 25.13 23.1 73.6 35 6.8 44.3 23.68 0.932
11:49 1022 30.18 851 25.13 23.4 74.1 34 7 44.6 23.89 0.941
11:50 1022 30.18 851 25.13 23.4 74.2 34 6.8 44.3 24.05 0.947
11:51 1022 30.18 851 25.13 23.5 74.3 31 5.8 42.4 24.16 0.951
11:52 1022 30.18 851 25.13 23.6 74.4 31 5.8 42.4 24.21 0.953
11:53 1022 30.18 851 25.13 23.5 74.4 38 8.8 47.8 24.28 0.956
11:54 1022 30.18 851 25.13 23.6 74.4 36 7.8 46 24.43 0.962
11:55 1022 30.18 851 25.13 23.6 74.5 32 6.1 43.1 24.46 0.963
11:56 1022 30.18 851 25.13 23.7 74.6 35 7.5 45.6 24.33 0.958
11:57 1022 30.18 851 25.13 23.7 74.7 40 9.5 49.2 24.42 0.961
11:58 1022 30.18 851 25.13 23.6 74.5 32 6.1 43 24.34 0.958
11:59 1022 30.18 851 25.13 23.5 74.3 33 6.5 43.6 24.38 0.96
12:00 1022 30.18 851 25.13 23.6 74.4 33 6.4 43.5 24.45 0.963
12:01 1022 30.18 851 25.13 23.6 74.5 31 5.6 42 24.45 0.963
12:02 1022 30.18 851 25.13 23.7 74.7 34 7 44.7 24.48 0.964
12:03 1022 30.18 851 25.13 23.6 74.5 33 6.8 44.2 24.46 0.963
12:04 1022 30.18 851 25.13 23.5 74.2 31 5.8 42.4 24.3 0.957
12:05 1022 30.18 851 25.13 23.5 74.3 33 6.7 44.1 24.27 0.956
12:06 1022 30.18 851 25.13 23.7 74.6 38 8.8 47.9 24.35 0.959
12:07 1022 30.18 851 25.13 23.7 74.7 35 7.4 45.3 24.41 0.961
12:08 1022 30.18 851 25.13 23.7 74.7 35 7.5 45.5 24.43 0.962
12:09 1022 30.18 851 25.13 23.8 74.8 33 6.6 43.8 24.47 0.963
12:10 1022 30.18 851 25.13 23.8 74.8 34 7.1 44.7 24.4 0.961
12:11 1022 30.18 851 25.13 23.7 74.7 34 7 44.7 24.33 0.958
12:12 1022 30.18 851 25.13 23.9 74.9 36 8.1 46.5 24.43 0.962
12:13 1022 30.18 851 25.13 23.9 75.1 43 10.9 51.5 24.47 0.963
12:14 1022 30.18 851 25.13 24 75.2 32 6.3 43.3 24.49 0.964
12:15 1022 30.18 851 25.13 24.1 75.3 31 6.1 43.1 24.48 0.964
12:16 1022 30.18 851 25.13 24.2 75.5 39 9.6 49.2 24.6 0.969
12:17 1022 30.18 851 25.13 24.2 75.5 37 8.8 47.8 24.58 0.968
12:18 1022 30.18 851 25.13 24.1 75.4 32 6.7 44.1 24.53 0.966
12:19 1022 30.18 851 25.13 24.1 75.3 38 9.1 48.3 24.48 0.964
12:20 1022 30.18 851 25.13 24.1 75.4 41 10.3 50.5 24.49 0.964
12:21 1022 30.18 851 25.13 24.2 75.6 36 8.4 47.1 24.48 0.964
12:22 1021 30.15 851 25.13 24.3 75.7 36 8.5 47.4 24.56 0.967
12:23 1021 30.15 851 25.13 24.3 75.8 38 9.4 48.9 24.57 0.967
12:24 1021 30.15 851 25.13 24.4 76 41 10.7 51.3 24.65 0.97
12:25 1021 30.15 851 25.13 24.5 76.1 38 9.4 48.9 24.73 0.974
12:26 1021 30.15 851 25.13 24.6 76.2 37 9.3 48.7 24.74 0.974
12:27 1021 30.15 850 25.1 24.5 76.1 36 8.6 47.5 24.67 0.971
12:28 1021 30.15 850 25.1 24.4 75.9 33 7.5 45.5 24.52 0.965
12:29 1021 30.15 850 25.1 24.4 75.9 33 7.2 44.9 24.54 0.966
12:30 1021 30.15 850 25.1 24.4 75.9 37 9.1 48.5 24.61 0.969
12:31 1021 30.15 850 25.1 24.5 76 32 7 44.5 24.56 0.967
12:32 1021 30.15 850 25.1 24.4 75.9 34 7.5 45.6 24.5 0.965
12:33 1021 30.15 850 25.1 24.3 75.8 33 7 44.7 24.44 0.962
12:34 1021 30.15 850 25.1 24.4 75.9 35 8.2 46.8 24.55 0.967
12:35 1021 30.15 850 25.1 24.4 76 29 5.6 42.1 24.68 0.972
12:36 1021 30.15 850 25.1 24.5 76.1 35 8.4 47.1 24.6 0.969
12:37 1021 30.15 850 25.1 24.5 76.1 32 6.9 44.5 24.62 0.969
12:38 1021 30.15 850 25.1 24.5 76.1 33 7.2 45 24.7 0.972
12:39 1021 30.15 850 25.1 24.5 76.2 36 8.5 47.3 24.72 0.973
12:40 1021 30.15 850 25.1 24.6 76.2 33 7.5 45.4 24.82 0.977
12:41 1021 30.15 850 25.1 24.6 76.3 35 8.5 47.3 24.87 0.979
12:42 1021 30.15 850 25.1 24.7 76.5 34 8.1 46.6 24.93 0.981
12:43 1021 30.15 850 25.1 24.8 76.6 32 7 44.6 24.94 0.982
12:44 1021 30.15 850 25.1 24.8 76.6 40 10.4 50.7 25 0.984
12:45 1021 30.15 850 25.1 24.8 76.7 38 9.7 49.4 25.11 0.989
12:46 1021 30.15 850 25.1 24.9 76.9 36 9.1 48.3 25.11 0.989
12:47 1021 30.15 850 25.1 24.9 76.8 35 8.5 47.3 25.14 0.99
12:48 1021 30.15 850 25.1 24.9 76.8 34 8.2 46.8 25.08 0.987
12:49 1021 30.15 850 25.1 24.9 76.8 38 9.9 49.7 25.12 0.989
12:50 1021 30.15 850 25.1 25 77.1 34 8.4 47.1 25.29 0.996
12:51 1021 30.15 850 25.1 25.1 77.2 37 9.7 49.4 25.34 0.998
12:52 1021 30.15 850 25.1 25.2 77.3 30 6.8 44.3 25.41 1
12:53 1021 30.15 850 25.1 25.1 77.2 37 9.6 49.2 25.33 0.997
12:54 1021 30.15 850 25.1 25.1 77.1 33 7.7 45.9 25.3 0.996
12:55 1021 30.15 850 25.1 25 77.1 29 6.1 43.1 25.26 0.994
12:56 1021 30.15 850 25.1 24.9 76.8 30 6.4 43.6 25.09 0.988
12:57 1021 30.15 850 25.1 24.8 76.6 31 6.9 44.4 25.03 0.985
12:58 1021 30.15 850 25.1 24.8 76.7 34 8 46.3 25.09 0.988
12:59 1021 30.15 850 25.1 24.9 76.9 31 6.8 44.2 25.08 0.987
13:00 1021 30.15 850 25.1 25 77 35 8.9 48 25.23 0.993
13:01 1021 30.15 850 25.1 25.2 77.3 28 5.7 42.2 25.43 1.001
13:02 1021 30.15 850 25.1 25.3 77.6 30 6.7 44.1 25.54 1.006
13:03 1021 30.15 850 25.1 25.4 77.6 26 4.6 40.3 25.69 1.011
13:04 1021 30.15 850 25.1 25.4 77.6 27 5.2 41.4 25.61 1.008
13:05 1021 30.15 850 25.1 25.3 77.5 25 4.2 39.6 25.51 1.004
13:06 1021 30.15 850 25.1 25.2 77.3 29 6 42.8 25.48 1.003
13:07 1021 30.15 850 25.1 25.1 77.1 29 6.3 43.3 25.53 1.005
13:08 1021 30.15 850 25.1 24.9 76.8 25 4 39.2 25.31 0.996
13:09 1021 30.15 850 25.1 24.8 76.7 27 4.6 40.2 25.2 0.992
13:10 1021 30.15 850 25.1 24.8 76.6 32 7.1 44.8 25.24 0.994
13:11 1021 30.15 850 25.1 24.7 76.4 40 10.5 51 25.18 0.991
13:12 1021 30.15 850 25.1 24.3 75.8 36 8.4 47.2 24.9 0.98
13:13 1021 30.15 850 25.1 24.1 75.4 45 11.5 52.6 24.56 0.967
13:14 1021 30.15 850 25.1 23.9 74.9 35 7.8 46 24.34 0.958
13:15 1021 30.15 850 25.1 23.8 74.8 39 9.1 48.4 24.19 0.952
13:16 1021 30.15 850 25.1 23.7 74.6 43 10.4 50.7 24.13 0.95
13:17 1021 30.15 850 25.1 23.5 74.3 40 9.4 48.9 24.01 0.945
13:18 1021 30.15 850 25.1 23.3 74 51 12.9 55.2 23.84 0.939
13:19 1021 30.15 850 25.1 23 73.4 52 12.8 55.1 23.57 0.928
13:20 1021 30.15 850 25.1 22.8 73 52 12.5 54.4 23.24 0.915
13:21 1021 30.15 850 25.1 22.5 72.6 54 12.9 55.1 23.03 0.907
13:22 1021 30.15 850 25.1 22.6 72.6 51 12.2 53.9 22.98 0.905
13:23 1021 30.15 850 25.1 22.7 72.9 52 12.6 54.7 23.09 0.909
13:24 1021 30.15 850 25.1 22.8 73.1 49 11.7 53.1 23.22 0.914
13:25 1021 30.15 850 25.1 23.1 73.5 56 13.9 57 23.46 0.924
13:26 1020 30.12 850 25.1 23.4 74 49 12.3 54.2 23.77 0.936
13:27 1020 30.12 850 25.1 23.6 74.5 46 11.4 52.5 23.98 0.944
13:28 1020 30.12 850 25.1 23.8 74.9 41 10 50 24.08 0.948
13:29 1020 30.12 850 25.1 24.1 75.3 44 11.2 52.2 24.4 0.961
13:30 1020 30.12 850 25.1 24.3 75.7 46 12 53.6 24.67 0.971
13:31 1020 30.12 850 25.1 24.4 75.8 40 10 50 24.71 0.973
13:32 1020 30.12 850 25.1 24.3 75.8 33 7.3 45.2 24.6 0.969
13:33 1020 30.12 850 25.1 24.3 75.7 35 8.2 46.8 24.53 0.966
13:34 1020 30.12 850 25.1 24.2 75.5 33 7.1 44.9 24.46 0.963
13:35 1020 30.12 850 25.1 24.1 75.4 42 10.6 51 24.41 0.961
13:36 1021 30.15 850 25.1 24 75.2 48 12.4 54.4 24.36 0.959
13:37 1021 30.15 850 25.1 23.6 74.6 45 11.3 52.4 24.13 0.95
13:38 1021 30.15 850 25.1 23.3 73.9 49 12.3 54.1 23.78 0.936
13:39 1021 30.15 850 25.1 23 73.3 49 11.7 53.1 23.45 0.923
13:40 1021 30.15 850 25.1 22.8 73 49 11.5 52.7 23.22 0.914
13:41 1021 30.15 850 25.1 22.6 72.8 52 12.4 54.4 23.04 0.907
13:42 1021 30.15 850 25.1 22.5 72.6 52 12.3 54.1 22.94 0.903
13:43 1021 30.15 850 25.1 22.3 72.2 56 13.3 55.9 22.78 0.897
13:44 1021 30.15 850 25.1 22.1 71.8 54 12.4 54.3 22.5 0.886
13:45 1021 30.15 850 25.1 22 71.5 49 10.8 51.4 22.32 0.879
13:46 1021 30.15 850 25.1 22.5 72.5 23 0.8 33.4 22.59 0.889
13:47 1021 30.15 850 25.1 23.5 74.2 37 8 46.4 23.62 0.93
13:48 1021 30.15 850 25.1 23.4 74 51 12.7 54.9 23.81 0.937
13:49 1021 30.15 850 25.1 22.5 72.6 54 12.8 55.1 23.13 0.911
13:50 1021 30.15 850 25.1 21.9 71.5 53 12 53.7 22.47 0.885
13:51 1021 30.15 850 25.1 21.6 70.9 56 12.6 54.7 22.11 0.87
13:52 1020 30.12 850 25.1 21.4 70.5 54 11.9 53.5 21.88 0.861
13:53 1020 30.12 849 25.07 21.3 70.3 49 10.2 50.3 21.72 0.855
13:54 1020 30.12 849 25.07 21.4 70.5 53 11.6 52.9 21.73 0.856
13:55 1020 30.12 850 25.1 21.4 70.6 52 11.4 52.6 21.76 0.857
13:56 1020 30.12 849 25.07 21.6 70.8 50 10.8 51.4 21.89 0.862
13:57 1020 30.12 849 25.07 21.6 70.8 53 11.9 53.4 22 0.866
13:58 1020 30.12 849 25.07 21.6 71 57 12.9 55.2 22 0.866
13:59 1020 30.12 849 25.07 21.5 70.7 35 5.7 42.3 21.92 0.863
14:00 1020 30.12 849 25.07 22.1 71.8 38 7.3 45.2 22.3 0.878
14:01 1020 30.12 849 25.07 22.5 72.5 45 10.3 50.5 22.77 0.896
14:02 1020 30.12 849 25.07 22.5 72.5 32 5.2 41.4 22.89 0.901
14:03 1020 30.12 849 25.07 22.7 72.8 37 7.5 45.5 23.01 0.906
14:04 1020 30.12 849 25.07 22.7 72.8 32 5.2 41.4 22.99 0.905
14:05 1020 30.12 849 25.07 22.7 72.9 32 5.3 41.6 23.07 0.908
14:06 1019 30.09 849 25.07 22.7 72.9 36 6.9 44.4 23.04 0.907
14:07 1019 30.09 849 25.07 22.7 72.8 33 5.9 42.6 23.08 0.909
14:08 1019 30.09 849 25.07 23.1 73.5 33 6.1 42.9 23.45 0.923
14:09 1019 30.09 849 25.07 23.7 74.6 30 5.4 41.7 24.06 0.947
14:10 1020 30.12 849 25.07 24.2 75.6 34 7.7 45.9 24.61 0.969
14:11 1020 30.12 849 25.07 24.5 76.1 31 6.3 43.3 24.97 0.983
14:12 1020 30.12 849 25.07 24.8 76.6 29 6 42.8 25.14 0.99
14:13 1020 30.12 849 25.07 24.9 76.8 40 10.6 51 25.32 0.997
14:14 1020 30.12 849 25.07 25.1 77.1 32 7.4 45.4 25.45 1.002
14:15 1020 30.12 849 25.07 25.1 77.2 28 5.7 42.2 25.48 1.003
14:16 1020 30.12 849 25.07 25.1 77.2 31 6.9 44.5 25.47 1.003
14:17 1020 30.12 849 25.07 25.1 77.2 28 5.8 42.4 25.43 1.001
14:18 1020 30.12 849 25.07 25 77 28 5.7 42.3 25.43 1.001
14:19 1019 30.09 849 25.07 24.9 76.8 31 6.8 44.3 25.29 0.996
14:20 1020 30.12 849 25.07 24.7 76.4 32 7.2 45 25.16 0.991
14:21 1020 30.12 849 25.07 24.5 76.1 37 9.2 48.6 24.96 0.983
14:22 1020 30.12 849 25.07 24.3 75.7 40 10 50 24.78 0.976
14:23 1020 30.12 849 25.07 24 75.1 40 9.6 49.3 24.55 0.967
14:24 1020 30.12 849 25.07 23.7 74.6 42 10.1 50.2 24.24 0.954
14:25 1020 30.12 849 25.07 23.4 74.2 43 10.3 50.6 23.93 0.942
14:26 1020 30.12 849 25.07 23.3 73.9 42 9.8 49.6 23.77 0.936
14:27 1020 30.12 849 25.07 23.2 73.8 45 10.7 51.3 23.69 0.933
14:28 1019 30.09 849 25.07 23.2 73.8 42 10 49.9 23.68 0.932
14:29 1019 30.09 849 25.07 23.3 73.9 45 10.8 51.4 23.69 0.933
14:30 1019 30.09 849 25.07 23.3 74 44 10.7 51.3 23.78 0.936
14:31 1019 30.09 848 25.04 23.3 73.9 46 11.4 52.4 23.71 0.933
14:32 1019 30.09 848 25.04 23.3 74 38 8.3 47 23.7 0.933
14:33 1019 30.09 848 25.04 23.4 74.2 45 11 51.8 23.81 0.937
14:34 1019 30.09 848 25.04 23.5 74.3 50 12.8 55 23.96 0.943
14:35 1019 30.09 848 25.04 23.4 74.1 50 12.5 54.5 23.93 0.942
14:36 1019 30.09 848 25.04 23.1 73.6 50 12.3 54.1 23.61 0.93
14:37 1019 30.09 848 25.04 22.9 73.3 51 12.4 54.3 23.39 0.921
14:38 1019 30.09 848 25.04 22.7 72.9 50 12 53.7 23.14 0.911
14:39 1019 30.09 848 25.04 22.5 72.5 46 10.5 51 22.88 0.901
14:40 1019 30.09 848 25.04 22.3 72.2 48 10.9 51.6 22.68 0.893
14:41 1019 30.09 848 25.04 22.2 71.9 52 12 53.7 22.56 0.888
14:42 1019 30.09 848 25.04 21.9 71.4 56 12.9 55.3 22.3 0.878
14:43 1019 30.09 848 25.04 21.6 70.9 56 12.6 54.6 22.07 0.869
14:44 1019 30.09 848 25.04 21.5 70.7 57 12.7 54.8 21.88 0.861
14:45 1019 30.09 848 25.04 21.4 70.4 59 13.1 55.5 21.8 0.858
14:46 1019 30.09 849 25.07 21.2 70.2 58 12.8 55 21.59 0.85
14:47 1019 30.09 849 25.07 21.1 70.1 57 12.3 54.2 21.49 0.846
14:48 1020 30.12 849 25.07 21.1 70 56 12.1 53.8 21.5 0.846
14:49 1020 30.12 849 25.07 21.1 70 53 11.4 52.5 21.46 0.845
14:50 1020 30.12 849 25.07 21.1 70 60 13.2 55.8 21.45 0.844
14:51 1020 30.12 850 25.1 20.7 69.3 53 10.9 51.7 21.08 0.83
14:52 1020 30.12 849 25.07 20.3 68.6 46 8.4 47.1 20.64 0.813
14:53 1020 30.12 849 25.07 20.2 68.3 49 9.2 48.5 20.55 0.809
14:54 1020 30.12 849 25.07 19.9 67.7 49 8.9 48.1 20.28 0.798
14:55 1020 30.12 849 25.07 19.7 67.4 49 8.9 48 20.02 0.788
14:56 1020 30.12 849 25.07 19.7 67.5 45 7.6 45.6 19.98 0.787
14:57 1020 30.12 849 25.07 20.1 68.1 40 6.2 43.1 20.2 0.795
14:58 1020 30.12 850 25.1 20.5 68.8 45 8.2 46.7 20.59 0.811
14:59 1020 30.12 850 25.1 20.4 68.7 42 7.3 45.2 20.66 0.813
15:00 1021 30.15 850 25.1 20.6 69.1 44 8.2 46.7 20.85 0.821
15:01 1021 30.15 850 25.1 20.7 69.2 41 7.2 45 20.91 0.823
15:02 1021 30.15 850 25.1 20.6 69.1 46 8.7 47.6 20.85 0.821
15:03 1021 30.15 850 25.1 20.5 68.9 42 7.1 44.9 20.76 0.817
15:04 1021 30.15 850 25.1 20.8 69.4 40 6.7 44.1 21.05 0.829
15:05 1021 30.15 850 25.1 21.1 69.9 40 7.2 45 21.52 0.847
15:06 1021 30.15 850 25.1 21.3 70.3 41 7.8 46.1 21.78 0.857
15:07 1021 30.15 850 25.1 21 69.9 44 8.5 47.3 21.59 0.85
15:08 1021 30.15 850 25.1 20.7 69.2 49 9.8 49.7 21.25 0.837
15:09 1021 30.15 850 25.1 20.4 68.7 43 7.6 45.7 20.87 0.822
15:10 1021 30.15 850 25.1 20.7 69.2 40 6.7 44 21.06 0.829
15:11 1021 30.15 850 25.1 21 69.8 38 6.3 43.4 21.33 0.84
15:12 1021 30.15 850 25.1 21.3 70.4 37 6.1 42.9 21.67 0.853
15:13 1021 30.15 850 25.1 21.6 70.9 39 7.3 45.2 21.93 0.863
15:14 1021 30.15 850 25.1 21.6 71 42 8.2 46.8 22.01 0.867
15:15 1021 30.15 850 25.1 21.5 70.6 42 8.2 46.7 21.84 0.86
15:16 1021 30.15 850 25.1 21.3 70.3 44 8.6 47.4 21.65 0.852
15:17 1021 30.15 850 25.1 21.2 70.2 37 6.3 43.3 21.52 0.847
15:18 1021 30.15 850 25.1 21.5 70.7 37 6.2 43.2 21.83 0.859
15:19 1021 30.15 850 25.1 21.9 71.3 41 8.1 46.6 22.13 0.871
15:20 1021 30.15 850 25.1 21.8 71.2 39 7.4 45.3 22.15 0.872
15:21 1021 30.15 850 25.1 21.7 71 38 7 44.5 22.05 0.868
15:22 1021 30.15 850 25.1 21.5 70.7 42 8.1 46.5 21.89 0.862
15:23 1021 30.15 850 25.1 21.5 70.7 39 7.2 44.9 21.85 0.86
15:24 1021 30.15 850 25.1 21.7 71 37 6.6 43.9 22.02 0.867
15:25 1021 30.15 850 25.1 21.8 71.2 37 6.6 43.9 22.1 0.87
15:26 1021 30.15 850 25.1 21.8 71.3 38 7 44.5 22.18 0.873
15:27 1021 30.15 850 25.1 21.9 71.4 32 4.4 40 22.26 0.876
15:28 1021 30.15 850 25.1 22.3 72.2 35 6.2 43.2 22.65 0.892
15:29 1021 30.15 850 25.1 22.2 71.9 36 6.7 44.1 22.59 0.889
15:30 1021 30.15 850 25.1 22.1 71.7 32 4.6 40.3 22.46 0.884
15:31 1021 30.15 850 25.1 22.3 72.1 35 6.1 43 22.66 0.892
15:32 1021 30.15 850 25.1 22.4 72.3 35 6.2 43.2 22.74 0.895
15:33 1021 30.15 850 25.1 22.3 72.1 38 7.4 45.4 22.7 0.894
15:34 1021 30.15 850 25.1 22.1 71.8 37 7 44.5 22.5 0.886
15:35 1021 30.15 850 25.1 22 71.6 36 6.4 43.5 22.38 0.881
15:36 1021 30.15 850 25.1 22.2 71.9 37 6.9 44.4 22.46 0.884
15:37 1021 30.15 850 25.1 22.2 71.9 40 8.1 46.6 22.53 0.887
15:38 1021 30.15 850 25.1 21.9 71.3 40 7.8 46 22.29 0.878
15:39 1021 30.15 850 25.1 21.6 71 42 8.2 46.8 22.05 0.868
15:40 1021 30.15 850 25.1 21.5 70.8 44 8.8 47.9 21.91 0.863
15:41 1021 30.15 850 25.1 21.3 70.3 40 7.4 45.4 21.68 0.854
15:42 1021 30.15 850 25.1 21.3 70.3 42 8 46.3 21.65 0.852
15:43 1021 30.15 850 25.1 21.3 70.4 41 7.5 45.6 21.72 0.855
15:44 1021 30.15 850 25.1 21.4 70.4 42 8 46.4 21.76 0.857
15:45 1021 30.15 850 25.1 21.4 70.5 40 7.5 45.6 21.76 0.857
15:46 1021 30.15 850 25.1 21.4 70.5 39 6.9 44.4 21.75 0.856
15:47 1021 30.15 850 25.1 21.4 70.6 43 8.5 47.3 21.78 0.857
15:48 1021 30.15 850 25.1 21.3 70.3 41 7.6 45.6 21.65 0.852
15:49 1021 30.15 850 25.1 21.3 70.3 37 6 42.9 21.65 0.852
15:50 1020 30.12 850 25.1 21.3 70.4 40 7.4 45.4 21.72 0.855
15:51 1020 30.12 849 25.07 21.3 70.3 38 6.5 43.7 21.67 0.853
15:52 1020 30.12 849 25.07 21.5 70.6 39 7.1 44.8 21.79 0.858
15:53 1020 30.12 849 25.07 21.4 70.5 39 7.1 44.7 21.8 0.858
15:54 1020 30.12 849 25.07 21.3 70.3 37 6.1 43 21.67 0.853
15:55 1020 30.12 849 25.07 21.4 70.5 36 5.9 42.6 21.75 0.856
15:56 1020 30.12 849 25.07 21.6 70.8 37 6.6 43.9 21.96 0.865
15:57 1020 30.12 849 25.07 21.9 71.3 38 7.1 44.8 22.24 0.876
15:58 1020 30.12 849 25.07 22.2 71.9 36 6.5 43.7 22.57 0.889
15:59 1020 30.12 849 25.07 22.5 72.4 36 7 44.6 22.88 0.901
16:00 1020 30.12 849 25.07 22.8 73 32 5.5 41.9 23.17 0.912
16:01 1020 30.12 849 25.07 23.1 73.6 33 6.4 43.5 23.52 0.926
16:02 1020 30.12 849 25.07 23.3 74 34 6.7 44.1 23.77 0.936
16:03 1020 30.12 849 25.07 23.5 74.3 33 6.4 43.6 23.84 0.939
16:04 1020 30.12 849 25.07 23.6 74.6 36 8.1 46.6 24.03 0.946
16:05 1020 30.12 849 25.07 23.7 74.7 32 6.3 43.3 24.1 0.949
16:06 1020 30.12 849 25.07 23.7 74.6 34 7.3 45.1 24.01 0.945
16:07 1020 30.12 849 25.07 23.7 74.6 32 6.2 43.1 24.04 0.946
16:08 1020 30.12 849 25.07 23.7 74.7 33 6.8 44.3 24.11 0.949
16:09 1020 30.12 849 25.07 23.7 74.7 32 6.3 43.3 24.11 0.949
16:10 1020 30.12 849 25.07 23.7 74.6 31 5.8 42.4 24.08 0.948
16:11 1020 30.12 849 25.07 23.6 74.5 32 6.2 43.2 23.97 0.944
16:12 1020 30.12 849 25.07 23.5 74.3 31 5.8 42.4 23.83 0.938
16:13 1020 30.12 849 25.07 23.4 74.2 33 6.6 43.8 23.8 0.937
16:14 1020 30.12 849 25.07 23.3 73.9 32 5.8 42.4 23.65 0.931
16:15 1020 30.12 849 25.07 23.2 73.8 35 7.1 44.8 23.63 0.93
16:16 1020 30.12 849 25.07 23.2 73.7 34 6.6 43.9 23.55 0.927
16:17 1020 30.12 849 25.07 23.2 73.7 33 6.1 42.9 23.52 0.926
16:18 1020 30.12 849 25.07 23.2 73.8 34 6.5 43.7 23.59 0.929
16:19 1020 30.12 849 25.07 23.3 73.9 36 7.4 45.4 23.63 0.93
16:20 1020 30.12 849 25.07 23.5 74.3 32 6.1 42.9 23.88 0.94
16:21 1020 30.12 849 25.07 24 75.3 32 6.4 43.5 24.44 0.962
16:22 1020 30.12 849 25.07 24.4 75.9 33 7.5 45.4 24.8 0.976
16:23 1020 30.12 849 25.07 24.6 76.3 29 5.8 42.4 24.93 0.981
16:24 1020 30.12 849 25.07 24.7 76.4 31 6.7 44.1 25.05 0.986
16:25 1020 30.12 849 25.07 24.5 76.2 33 7.5 45.5 24.91 0.981
16:26 1020 30.12 849 25.07 24.3 75.7 35 8.2 46.8 24.71 0.973
16:27 1020 30.12 849 25.07 24 75.1 36 8.2 46.8 24.41 0.961
16:28 1019 30.09 849 25.07 23.7 74.6 31 6 42.7 24.14 0.95
16:29 1019 30.09 849 25.07 23.5 74.3 36 7.7 45.9 24 0.945
16:30 1019 30.09 849 25.07 23.4 74 35 7.2 44.9 23.81 0.937
16:31 1019 30.09 849 25.07 23.2 73.8 37 7.8 46 23.65 0.931
16:32 1019 30.09 849 25.07 23.1 73.5 38 8.3 47 23.49 0.925
16:33 1019 30.09 849 25.07 22.8 73.1 38 8.1 46.6 23.3 0.917
16:34 1019 30.09 849 25.07 22.8 73.1 36 7.4 45.3 23.27 0.916
16:35 1019 30.09 849 25.07 22.9 73.1 37 7.5 45.5 23.27 0.916
16:36 1019 30.09 848 25.04 22.9 73.2 35 6.8 44.2 23.23 0.915
16:37 1019 30.09 848 25.04 22.9 73.2 37 7.8 46 23.29 0.917
16:38 1019 30.09 848 25.04 22.8 73.1 38 8 46.4 23.23 0.915
16:39 1019 30.09 848 25.04 22.8 73 39 8.2 46.8 23.17 0.912
16:40 1019 30.09 848 25.04 22.7 72.8 37 7.5 45.5 23.12 0.91
16:41 1019 30.09 848 25.04 22.7 72.8 39 8.2 46.7 23.06 0.908
16:42 1019 30.09 848 25.04 22.6 72.7 41 8.9 47.9 22.99 0.905
16:43 1019 30.09 849 25.07 22.5 72.4 41 8.6 47.5 22.89 0.901
16:44 1019 30.09 849 25.07 22.4 72.2 41 8.6 47.5 22.77 0.896
16:45 1019 30.09 849 25.07 22.4 72.2 39 8.1 46.5 22.73 0.895
16:46 1019 30.09 849 25.07 22.4 72.3 42 8.9 48 22.74 0.895
16:47 1019 30.09 849 25.07 22.4 72.3 41 8.8 47.9 22.72 0.894
16:48 1019 30.09 849 25.07 22.3 72.2 44 9.8 49.7 22.73 0.895
16:49 1019 30.09 849 25.07 22.2 72 39 7.8 46 22.65 0.892
16:50 1019 30.09 849 25.07 22.3 72.2 39 8.1 46.5 22.68 0.893
16:51 1019 30.09 849 25.07 22.4 72.3 39 7.9 46.3 22.73 0.895
16:52 1019 30.09 849 25.07 22.4 72.3 42 9.1 48.4 22.78 0.897
16:53 1019 30.09 849 25.07 22.4 72.3 42 9 48.1 22.81 0.898
16:54 1020 30.12 849 25.07 22.4 72.4 41 8.7 47.7 22.77 0.896
16:55 1020 30.12 849 25.07 22.5 72.4 39 8 46.5 22.8 0.898
16:56 1020 30.12 849 25.07 22.5 72.4 40 8.5 47.3 22.85 0.9
16:57 1020 30.12 849 25.07 22.6 72.6 34 6.3 43.4 22.94 0.903
16:58 1020 30.12 849 25.07 22.9 73.3 39 8.4 47 23.29 0.917
16:59 1020 30.12 849 25.07 23.2 73.8 36 7.5 45.5 23.64 0.931
17:00 1020 30.12 849 25.07 23.4 74.1 35 7.4 45.4 23.74 0.935
17:01 1020 30.12 849 25.07 23.5 74.4 32 6 42.7 23.9 0.941
17:02 1019 30.09 849 25.07 23.6 74.5 35 7.5 45.5 23.99 0.944
17:03 1019 30.09 849 25.07 23.6 74.4 36 7.7 45.9 23.98 0.944
17:04 1020 30.12 849 25.07 23.6 74.4 38 8.7 47.7 23.97 0.944
17:05 1020 30.12 849 25.07 23.5 74.3 32 6.1 43 23.86 0.939
17:06 1019 30.09 849 25.07 23.5 74.4 32 5.9 42.6 23.87 0.94
17:07 1020 30.12 849 25.07 23.5 74.3 33 6.4 43.5 23.84 0.939
17:08 1020 30.12 849 25.07 23.4 74 33 6.3 43.3 23.73 0.934
17:09 1020 30.12 849 25.07 23.4 74.1 33 6.3 43.4 23.74 0.935
17:10 1020 30.12 849 25.07 23.5 74.2 33 6.3 43.4 23.84 0.939
17:11 1020 30.12 849 25.07 23.4 74.2 33 6.6 43.8 23.82 0.938
17:12 1020 30.12 849 25.07 23.5 74.3 32 6.2 43.1 23.87 0.94
17:13 1020 30.12 849 25.07 23.7 74.6 37 8.2 46.8 24.05 0.947
17:14 1020 30.12 849 25.07 23.8 74.8 36 8 46.4 24.24 0.954
17:15 1020 30.12 849 25.07 23.8 74.9 31 5.8 42.5 24.23 0.954
17:16 1020 30.12 849 25.07 23.8 74.9 31 5.7 42.3 24.2 0.953
17:17 1020 30.12 849 25.07 23.8 74.9 31 5.9 42.5 24.16 0.951
17:18 1020 30.12 849 25.07 23.5 74.4 32 6 42.8 23.89 0.941
17:19 1020 30.12 849 25.07 23.4 74.1 29 4.7 40.5 23.76 0.935
17:20 1020 30.12 849 25.07 23.3 73.9 33 6.2 43.2 23.66 0.931
17:21 1020 30.12 849 25.07 23.2 73.8 33 6.4 43.5 23.6 0.929
17:22 1020 30.12 849 25.07 23.4 74.1 32 6.1 42.9 23.8 0.937
17:23 1019 30.09 849 25.07 23.7 74.6 31 5.9 42.5 24.03 0.946
17:24 1019 30.09 849 25.07 23.9 75 33 6.7 44 24.26 0.955
17:25 1020 30.12 849 25.07 24 75.1 31 6.1 43.1 24.37 0.959
17:26 1019 30.09 849 25.07 24 75.3 31 6 42.9 24.44 0.962
17:27 1020 30.12 849 25.07 24 75.2 34 7.4 45.3 24.44 0.962
17:28 1020 30.12 849 25.07 23.8 74.9 32 6.3 43.3 24.26 0.955
17:29 1020 30.12 849 25.07 23.7 74.7 28 4.6 40.2 24.11 0.949
17:30 1019 30.09 849 25.07 23.7 74.7 28 4.6 40.3 24.1 0.949
17:31 1019 30.09 849 25.07 23.6 74.6 28 4.2 39.6 24 0.945
17:32 1020 30.12 849 25.07 23.7 74.6 28 4.1 39.4 24.03 0.946
17:33 1020 30.12 849 25.07 23.8 74.8 29 4.8 40.7 24.13 0.95
17:34 1020 30.12 849 25.07 23.7 74.7 28 4.3 39.7 24.09 0.948
17:35 1020 30.12 849 25.07 23.8 74.8 27 4.1 39.4 24.13 0.95
17:36 1020 30.12 849 25.07 23.8 74.8 29 4.8 40.6 24.13 0.95
17:37 1020 30.12 849 25.07 23.7 74.7 28 4.2 39.5 24.04 0.946
17:38 1020 30.12 849 25.07 23.7 74.6 28 4.5 40 24 0.945
17:39 1020 30.12 849 25.07 23.6 74.5 28 4.5 40 23.95 0.943
17:40 1020 30.12 849 25.07 23.5 74.3 28 4 39.1 23.86 0.939
17:41 1020 30.12 849 25.07 23.5 74.3 28 4.3 39.7 23.86 0.939
17:42 1020 30.12 849 25.07 23.4 74.2 30 5 40.9 23.74 0.935
17:43 1020 30.12 849 25.07 23.4 74.1 29 4.7 40.5 23.73 0.934
17:44 1020 30.12 849 25.07 23.4 74 29 4.3 39.8 23.7 0.933
17:45 1020 30.12 849 25.07 23.4 74 30 5.2 41.4 23.68 0.932
17:46 1020 30.12 849 25.07 23.2 73.8 30 5 41 23.59 0.929
17:47 1020 30.12 849 25.07 23.1 73.6 30 4.8 40.7 23.47 0.924
17:48 1020 30.12 849 25.07 23 73.5 29 4.5 40.1 23.39 0.921
17:49 1020 30.12 849 25.07 23.1 73.5 31 5.1 41.2 23.44 0.923
17:50 1020 30.12 849 25.07 23.1 73.5 30 4.6 40.4 23.42 0.922
17:51 1020 30.12 849 25.07 23.1 73.5 32 5.5 41.9 23.39 0.921
17:52 1020 30.12 849 25.07 23 73.3 31 5.2 41.4 23.33 0.919
17:53 1020 30.12 849 25.07 22.9 73.3 31 5 40.9 23.25 0.915
17:54 1020 30.12 849 25.07 22.9 73.2 32 5.4 41.7 23.28 0.917
17:55 1020 30.12 849 25.07 22.8 73 32 5.3 41.6 23.17 0.912
17:56 1020 30.12 849 25.07 22.7 72.9 33 5.8 42.4 23.11 0.91
17:57 1020 30.12 849 25.07 22.7 72.9 32 5.5 42 23.08 0.909
17:58 1020 30.12 849 25.07 22.8 73 33 5.8 42.4 23.11 0.91
17:59 1020 30.12 849 25.07 22.7 72.9 32 5.4 41.8 23.1 0.909
18:00 1020 30.12 849 25.07 22.7 72.8 33 6 42.7 23.02 0.906
18:01 1020 30.12 849 25.07 22.6 72.7 36 6.9 44.4 22.96 0.904
18:02 1020 30.12 849 25.07 22.4 72.3 37 7.4 45.3 22.82 0.898
18:03 1020 30.12 849 25.07 22.3 72.1 36 6.7 44 22.68 0.893
18:04 1020 30.12 850 25.1 22.2 71.9 33 5.5 42 22.59 0.889
18:05 1020 30.12 850 25.1 22.2 71.9 36 6.6 43.9 22.6 0.89
18:06 1020 30.12 850 25.1 22.2 71.9 37 7 44.6 22.58 0.889
18:07 1020 30.12 850 25.1 22.2 71.9 40 8.2 46.7 22.55 0.888
18:08 1021 30.15 850 25.1 22.1 71.7 38 7.4 45.3 22.39 0.881
18:09 1021 30.15 850 25.1 22 71.6 36 6.5 43.7 22.34 0.88
18:10 1021 30.15 850 25.1 22.1 71.8 39 7.7 45.8 22.42 0.883
18:11 1020 30.12 850 25.1 22 71.7 40 7.9 46.1 22.28 0.877
18:12 1020 30.12 850 25.1 21.8 71.3 40 7.7 45.8 22.15 0.872
18:13 1020 30.12 850 25.1 21.7 71.1 37 6.8 44.2 22.06 0.869
18:14 1020 30.12 850 25.1 21.8 71.2 41 7.9 46.3 22.09 0.87
18:15 1020 30.12 849 25.07 21.8 71.2 42 8.5 47.3 22.08 0.869
18:16 1020 30.12 849 25.07 21.7 71.1 39 7.5 45.5 22.06 0.869
18:17 1020 30.12 849 25.07 21.8 71.2 40 7.8 46.1 22.08 0.869
18:18 1020 30.12 849 25.07 21.8 71.2 41 8 46.3 22.11 0.87
18:19 1020 30.12 849 25.07 21.8 71.2 43 8.8 47.9 22.08 0.869
18:20 1020 30.12 849 25.07 21.8 71.2 41 8 46.5 22.06 0.869
18:21 1020 30.12 849 25.07 21.8 71.2 40 7.8 46 22.07 0.869
18:22 1020 30.12 849 25.07 21.9 71.4 37 6.6 43.9 22.26 0.876
18:23 1020 30.12 849 25.07 22.1 71.7 36 6.7 44 22.42 0.883
18:24 1020 30.12 849 25.07 22.2 71.9 41 8.6 47.5 22.52 0.887
18:25 1020 30.12 849 25.07 22.1 71.8 39 7.6 45.8 22.49 0.885
18:26 1020 30.12 849 25.07 22.1 71.8 38 7.4 45.4 22.42 0.883
18:27 1020 30.12 849 25.07 22.1 71.7 40 8.2 46.7 22.46 0.884
18:28 1020 30.12 849 25.07 22.1 71.8 37 6.9 44.4 22.43 0.883
18:29 1020 30.12 849 25.07 22.1 71.8 37 6.9 44.4 22.47 0.885
18:30 1020 30.12 849 25.07 22.2 71.9 40 8.2 46.7 22.5 0.886
18:31 1020 30.12 849 25.07 21.9 71.4 42 8.5 47.3 22.17 0.873
18:32 1020 30.12 849 25.07 21.4 70.6 45 9.2 48.5 21.73 0.856
18:33 1020 30.12 849 25.07 21.1 69.9 46 9.2 48.5 21.4 0.843
18:34 1020 30.12 849 25.07 20.8 69.4 48 9.5 49.2 21.09 0.83
18:35 1020 30.12 849 25.07 20.6 69 48 9.3 48.8 20.83 0.82
18:36 1020 30.12 849 25.07 20.4 68.7 48 9.2 48.5 20.71 0.815
18:37 1020 30.12 849 25.07 20.3 68.5 48 9 48.1 20.59 0.811
18:38 1020 30.12 849 25.07 20.3 68.5 47 8.7 47.7 20.6 0.811
18:39 1020 30.12 849 25.07 20.3 68.5 47 8.6 47.5 20.61 0.811
18:40 1020 30.12 849 25.07 20.3 68.5 49 9.2 48.6 20.65 0.813
18:41 1020 30.12 849 25.07 20.3 68.5 48 9.2 48.5 20.64 0.813
18:42 1020 30.12 849 25.07 20.3 68.5 46 8.3 47 20.64 0.813
18:43 1020 30.12 849 25.07 20.4 68.7 47 8.9 48 20.71 0.815
18:44 1020 30.12 849 25.07 20.4 68.7 45 8.3 46.9 20.72 0.816
18:45 1020 30.12 849 25.07 20.4 68.7 46 8.4 47.1 20.79 0.819
18:46 1020 30.12 849 25.07 20.5 68.9 45 8.5 47.2 20.8 0.819
18:47 1020 30.12 849 25.07 20.5 68.9 46 8.7 47.7 20.86 0.821
18:48 1020 30.12 849 25.07 20.6 69 45 8.4 47.2 20.88 0.822
18:49 1020 30.12 849 25.07 20.5 69 47 8.9 48 20.88 0.822
18:50 1020 30.12 849 25.07 20.5 68.9 47 8.8 47.9 20.87 0.822
18:51 1020 30.12 849 25.07 20.5 68.9 49 9.5 49.2 20.9 0.823
18:52 1020 30.12 849 25.07 20.4 68.7 52 10.2 50.4 20.87 0.822
18:53 1020 30.12 849 25.07 20.2 68.3 54 10.8 51.5 20.71 0.815
18:54 1020 30.12 849 25.07 20 68 57 11.2 52.2 20.51 0.807
18:55 1020 30.12 849 25.07 19.8 67.7 57 11.1 52 20.34 0.801
18:56 1019 30.09 849 25.07 19.7 67.4 59 11.5 52.7 20.18 0.794
18:57 1019 30.09 849 25.07 19.5 67.1 58 11.2 52.2 20.08 0.791
18:58 1019 30.09 849 25.07 19.5 67 56 10.6 51.1 20 0.787
18:59 1019 30.09 849 25.07 19.5 67.1 57 10.9 51.6 19.95 0.785
19:00 1019 30.09 849 25.07 19.5 67.2 55 10.4 50.6 19.96 0.786
19:01 1019 30.09 849 25.07 19.6 67.3 55 10.3 50.6 20.05 0.789
19:02 1019 30.09 849 25.07 19.7 67.4 55 10.4 50.8 20.14 0.793
19:03 1019 30.09 849 25.07 19.7 67.5 55 10.7 51.2 20.19 0.795
19:04 1019 30.09 849 25.07 19.8 67.7 56 10.9 51.7 20.28 0.798
19:05 1019 30.09 849 25.07 19.9 67.8 55 10.6 51 20.35 0.801
19:06 1019 30.09 849 25.07 19.9 67.9 55 10.7 51.3 20.38 0.802
19:07 1019 30.09 849 25.07 19.9 67.9 56 11.1 51.9 20.44 0.805
19:08 1019 30.09 849 25.07 20 67.9 55 10.8 51.4 20.44 0.805
19:09 1019 30.09 848 25.04 20 68.1 53 10.3 50.6 20.54 0.809
19:10 1019 30.09 848 25.04 20.2 68.3 50 9.6 49.3 20.68 0.814
19:11 1019 30.09 848 25.04 20.3 68.5 52 10.2 50.4 20.8 0.819
19:12 1019 30.09 848 25.04 20.4 68.7 52 10.4 50.7 20.88 0.822
19:13 1019 30.09 848 25.04 20.4 68.7 52 10.4 50.6 20.94 0.824
19:14 1019 30.09 848 25.04 20.4 68.8 53 10.6 51 20.97 0.826
19:15 1019 30.09 848 25.04 20.4 68.7 52 10.4 50.8 20.96 0.825
19:16 1019 30.09 848 25.04 20.4 68.7 52 10.3 50.6 20.96 0.825
19:17 1019 30.09 848 25.04 20.5 68.9 52 10.5 51 21.02 0.828
19:18 1019 30.09 848 25.04 20.5 68.9 51 10.2 50.3 21.03 0.828
19:19 1019 30.09 848 25.04 20.5 68.9 50 10 50 21.01 0.827
19:20 1019 30.09 848 25.04 20.6 69 48 9.3 48.8 21.08 0.83
19:21 1019 30.09 848 25.04 20.6 69.1 49 9.6 49.3 21.1 0.831
19:22 1019 30.09 848 25.04 20.7 69.2 48 9.3 48.8 21.1 0.831
19:23 1019 30.09 848 25.04 20.8 69.4 50 10 49.9 21.18 0.834
19:24 1019 30.09 848 25.04 20.8 69.4 46 9 48.2 21.24 0.836
19:25 1019 30.09 848 25.04 20.8 69.4 46 8.8 47.9 21.27 0.837
19:26 1019 30.09 848 25.04 20.8 69.4 47 9.2 48.5 21.21 0.835
19:27 1019 30.09 848 25.04 20.7 69.3 45 8.5 47.2 21.11 0.831
19:28 1019 30.09 848 25.04 20.7 69.3 46 8.9 48.1 21.12 0.831
19:29 1019 30.09 848 25.04 20.7 69.2 46 8.7 47.7 21.02 0.828
19:30 1019 30.09 848 25.04 20.6 69.1 47 9.2 48.5 20.93 0.824
19:31 1019 30.09 848 25.04 20.5 69 46 8.7 47.6 20.88 0.822
19:32 1019 30.09 848 25.04 20.5 68.9 46 8.7 47.7 20.82 0.82
19:33 1019 30.09 848 25.04 20.4 68.8 46 8.5 47.3 20.79 0.819
19:34 1019 30.09 848 25.04 20.4 68.7 47 8.8 47.8 20.7 0.815
19:35 1019 30.09 848 25.04 20.2 68.4 47 8.6 47.6 20.57 0.81
19:36 1019 30.09 848 25.04 20.1 68.3 47 8.6 47.6 20.48 0.806
19:37 1019 30.09 848 25.04 20.1 68.1 46 8.3 46.9 20.46 0.806
19:38 1019 30.09 848 25.04 20.1 68.2 45 8.1 46.5 20.46 0.806
19:39 1019 30.09 848 25.04 20.1 68.2 46 8.3 46.9 20.52 0.808
19:40 1019 30.09 848 25.04 20.2 68.4 46 8.4 47 20.59 0.811
19:41 1019 30.09 848 25.04 20.3 68.5 46 8.4 47.1 20.68 0.814
19:42 1019 30.09 848 25.04 20.4 68.7 45 8.2 46.8 20.7 0.815
19:43 1019 30.09 848 25.04 20.4 68.7 45 8.2 46.8 20.78 0.818
19:44 1019 30.09 848 25.04 20.5 68.8 44 8 46.4 20.81 0.819
19:45 1019 30.09 848 25.04 20.5 69 44 7.9 46.2 20.89 0.822
19:46 1019 30.09 848 25.04 20.6 69.1 43 7.6 45.7 20.95 0.825
19:47 1019 30.09 848 25.04 20.6 69 46 8.6 47.6 20.91 0.823
19:48 1019 30.09 848 25.04 20.6 69 44 8 46.5 20.87 0.822
19:49 1019 30.09 848 25.04 20.5 68.9 46 8.5 47.3 20.85 0.821
19:50 1019 30.09 848 25.04 20.4 68.8 48 9.1 48.5 20.8 0.819
19:51 1019 30.09 848 25.04 20.3 68.5 50 9.6 49.3 20.69 0.815
19:52 1019 30.09 848 25.04 20.1 68.1 49 9.1 48.3 20.5 0.807
19:53 1019 30.09 848 25.04 19.9 67.7 50 9.3 48.7 20.37 0.802
19:54 1019 30.09 848 25.04 19.7 67.5 50 9.2 48.5 20.2 0.795
19:55 1019 30.09 848 25.04 19.7 67.4 50 9 48.1 20.12 0.792
19:56 1019 30.09 848 25.04 19.6 67.2 51 9.2 48.6 20.04 0.789
19:57 1019 30.09 848 25.04 19.5 67.1 51 9.1 48.5 19.95 0.785
19:58 1019 30.09 848 25.04 19.4 67 52 9.3 48.8 19.83 0.781
19:59 1019 30.09 848 25.04 19.3 66.7 53 9.5 49.1 19.77 0.778
20:00 1019 30.09 848 25.04 19.2 66.5 53 9.6 49.3 19.64 0.773
20:01 1019 30.09 848 25.04 19.1 66.4 54 9.6 49.2 19.56 0.77
20:02 1019 30.09 848 25.04 19 66.2 54 9.7 49.4 19.45 0.766
20:03 1019 30.09 848 25.04 18.9 66.1 54 9.6 49.3 19.35 0.762
20:04 1019 30.09 848 25.04 18.9 65.9 54 9.5 49.2 19.27 0.759
20:05 1019 30.09 848 25.04 18.8 65.9 54 9.3 48.8 19.24 0.757
20:06 1019 30.09 848 25.04 18.8 65.8 53 9.1 48.4 19.21 0.756
20:07 1019 30.09 848 25.04 18.8 65.8 54 9.5 49.2 19.21 0.756
20:08 1019 30.09 848 25.04 18.8 65.8 56 10 49.9 19.16 0.754
20:09 1019 30.09 848 25.04 18.6 65.4 55 9.4 49 18.94 0.746
20:10 1019 30.09 848 25.04 18.3 65 57 9.7 49.5 18.69 0.736
20:11 1019 30.09 849 25.07 18.2 64.8 52 8.5 47.2 18.58 0.731
20:12 1019 30.09 849 25.07 18.4 65.1 54 8.9 48.1 18.86 0.743
20:13 1019 30.09 848 25.04 18.6 65.5 53 9 48.3 18.98 0.747
20:14 1019 30.09 848 25.04 18.7 65.6 53 9.1 48.3 19.07 0.751
20:15 1019 30.09 848 25.04 18.7 65.7 51 8.5 47.3 19.1 0.752
20:16 1019 30.09 848 25.04 18.9 66.1 50 8.5 47.3 19.26 0.758
20:17 1019 30.09 848 25.04 19.2 66.6 49 8.3 47 19.48 0.767
20:18 1019 30.09 848 25.04 19.4 67 51 9.2 48.5 19.67 0.774
20:19 1019 30.09 848 25.04 19.2 66.5 53 9.5 49.1 19.51 0.768
20:20 1019 30.09 848 25.04 18.9 66 54 9.5 49.1 19.22 0.757
20:21 1019 30.09 848 25.04 18.5 65.4 56 9.7 49.4 18.9 0.744
20:22 1019 30.09 848 25.04 18.1 64.5 59 10 50 18.44 0.726
20:23 1019 30.09 848 25.04 17.6 63.7 60 9.9 49.9 18.04 0.71
20:24 1019 30.09 848 25.04 17.2 63 61 9.7 49.4 17.68 0.696
20:25 1019 30.09 848 25.04 17 62.6 62 9.9 49.7 17.43 0.686
20:26 1019 30.09 848 25.04 16.7 62.1 64 10 50.1 17.2 0.677
20:27 1019 30.09 848 25.04 16.4 61.5 65 9.9 49.8 16.92 0.666
20:28 1019 30.09 848 25.04 16.2 61.2 66 10 50 16.68 0.657
20:29 1019 30.09 848 25.04 16 60.8 67 10 50 16.5 0.65
20:30 1019 30.09 848 25.04 15.8 60.4 68 9.8 49.7 16.28 0.641
20:31 1019 30.09 848 25.04 15.6 60.2 68 9.7 49.5 16.13 0.635
20:32 1019 30.09 848 25.04 15.6 60 67 9.6 49.4 15.98 0.629
20:33 1019 30.09 848 25.04 15.5 59.8 68 9.8 49.6 15.9 0.626
20:34 1019 30.09 848 25.04 15.3 59.5 70 9.9 49.8 15.74 0.62
20:35 1019 30.09 848 25.04 15 59 71 9.8 49.7 15.57 0.613
20:36 1019 30.09 848 25.04 14.8 58.7 72 9.8 49.7 15.34 0.604
20:37 1019 30.09 848 25.04 14.6 58.3 72 9.7 49.5 15.09 0.594
20:38 1019 30.09 848 25.04 14.5 58 73 9.7 49.4 14.93 0.588
20:39 1019 30.09 848 25.04 14.3 57.8 73 9.7 49.4 14.71 0.579
20:40 1019 30.09 848 25.04 14.3 57.7 71 9 48.3 14.66 0.577
20:41 1019 30.09 848 25.04 14.7 58.4 69 9.1 48.4 14.97 0.589
20:42 1019 30.09 848 25.04 15.1 59.1 68 9.3 48.7 15.27 0.601
20:43 1019 30.09 848 25.04 15.2 59.3 68 9.4 48.9 15.46 0.609
20:44 1019 30.09 848 25.04 15.2 59.3 68 9.4 49 15.46 0.609
20:45 1019 30.09 848 25.04 15.2 59.4 69 9.5 49.1 15.5 0.61
20:46 1019 30.09 848 25.04 15.1 59.1 70 9.6 49.4 15.41 0.607
20:47 1019 30.09 849 25.07 14.9 58.8 70 9.5 49.2 15.28 0.602
20:48 1019 30.09 849 25.07 14.8 58.7 70 9.5 49.2 15.17 0.597
20:49 1019 30.09 849 25.07 14.8 58.6 71 9.7 49.4 15.15 0.596
20:50 1019 30.09 849 25.07 14.7 58.4 72 9.6 49.4 15.08 0.594
20:51 1019 30.09 849 25.07 14.7 58.4 71 9.5 49.2 15.05 0.593
20:52 1019 30.09 849 25.07 14.7 58.5 71 9.6 49.2 15.13 0.596
20:53 1019 30.09 849 25.07 14.8 58.7 71 9.7 49.4 15.2 0.598
20:54 1019 30.09 849 25.07 14.9 58.7 70 9.6 49.2 15.19 0.598
20:55 1019 30.09 849 25.07 14.9 58.8 71 9.7 49.5 15.23 0.6
20:56 1020 30.12 849 25.07 14.9 58.8 70 9.6 49.2 15.22 0.599
20:57 1020 30.12 849 25.07 14.9 58.8 70 9.6 49.3 15.24 0.6
20:58 1019 30.09 849 25.07 14.9 58.9 69 9.4 49 15.26 0.601
20:59 1019 30.09 849 25.07 15 58.9 69 9.3 48.7 15.3 0.602
21:00 1019 30.09 849 25.07 15.1 59.2 67 9.2 48.5 15.43 0.607
21:01 1020 30.12 849 25.07 15.3 59.5 67 9.2 48.5 15.55 0.612
21:02 1020 30.12 849 25.07 15.4 59.7 66 9.1 48.4 15.69 0.618
21:03 1020 30.12 849 25.07 15.4 59.8 66 9.2 48.6 15.74 0.62
21:04 1020 30.12 849 25.07 15.4 59.7 67 9.3 48.8 15.76 0.62
21:05 1020 30.12 849 25.07 15.4 59.8 63 8.6 47.4 15.75 0.62
21:06 1020 30.12 849 25.07 15.9 60.5 60 8.3 46.9 16.07 0.633
21:07 1020 30.12 849 25.07 16.2 61.2 60 8.7 47.6 16.47 0.648
21:08 1020 30.12 849 25.07 16.4 61.4 62 9.1 48.3 16.59 0.653
21:09 1020 30.12 849 25.07 16.2 61.2 63 9.3 48.8 16.53 0.651
21:10 1020 30.12 849 25.07 16 60.7 64 9.2 48.6 16.33 0.643
21:11 1020 30.12 849 25.07 15.8 60.4 64 9 48.2 16.17 0.637
21:12 1020 30.12 849 25.07 15.8 60.5 64 9.1 48.4 16.15 0.636
21:13 1020 30.12 849 25.07 15.8 60.5 63 8.8 47.9 16.14 0.635
21:14 1020 30.12 849 25.07 15.9 60.6 64 9.3 48.7 16.2 0.638
21:15 1020 30.12 849 25.07 15.8 60.5 64 9.1 48.3 16.15 0.636
21:16 1020 30.12 849 25.07 15.8 60.5 64 9.1 48.3 16.15 0.636
21:17 1020 30.12 849 25.07 15.9 60.5 64 9 48.3 16.17 0.637
21:18 1020 30.12 849 25.07 15.9 60.6 64 9.2 48.6 16.24 0.639
21:19 1020 30.12 849 25.07 15.9 60.6 64 9.1 48.4 16.18 0.637
21:20 1020 30.12 849 25.07 15.8 60.5 65 9.3 48.7 16.19 0.637
21:21 1020 30.12 849 25.07 15.8 60.4 64 9 48.3 16.11 0.634
21:22 1020 30.12 849 25.07 15.7 60.3 67 9.6 49.3 16.09 0.633
21:23 1020 30.12 849 25.07 15.6 60 66 9.3 48.7 15.9 0.626
21:24 1020 30.12 849 25.07 15.5 59.9 66 9.1 48.5 15.82 0.623
21:25 1020 30.12 849 25.07 15.5 59.8 67 9.4 48.9 15.76 0.62
21:26 1020 30.12 849 25.07 15.4 59.7 64 8.6 47.5 15.71 0.619
21:27 1020 30.12 849 25.07 15.5 59.9 62 8.4 47.2 15.81 0.622
21:28 1020 30.12 849 25.07 15.8 60.4 62 8.7 47.6 15.97 0.629
21:29 1020 30.12 849 25.07 16 60.7 61 8.5 47.3 16.16 0.636
21:30 1020 30.12 849 25.07 16.1 60.9 62 8.8 47.9 16.34 0.643
21:31 1020 30.12 849 25.07 16 60.9 63 9 48.2 16.27 0.641
21:32 1020 30.12 849 25.07 15.8 60.5 61 8.3 47 16.08 0.633
21:33 1020 30.12 849 25.07 15.9 60.7 61 8.4 47.2 16.1 0.634
21:34 1020 30.12 849 25.07 16 60.9 61 8.6 47.6 16.15 0.636
21:35 1020 30.12 849 25.07 16 60.8 59 8.2 46.7 16.17 0.637
21:36 1020 30.12 849 25.07 16 60.9 58 7.8 46.1 16.16 0.636
21:37 1020 30.12 849 25.07 16.3 61.3 57 7.7 45.9 16.33 0.643
21:38 1020 30.12 849 25.07 16.5 61.7 57 8.1 46.6 16.54 0.651
21:39 1020 30.12 849 25.07 16.5 61.6 57 8 46.4 16.56 0.652
21:40 1020 30.12 849 25.07 16.5 61.7 58 8.3 46.9 16.62 0.654
21:41 1020 30.12 849 25.07 16.3 61.4 59 8.4 47.2 16.51 0.65
21:42 1020 30.12 849 25.07 16.1 61 59 8.3 46.9 16.36 0.644
21:43 1020 30.12 849 25.07 16 60.8 58 7.9 46.1 16.26 0.64
21:44 1020 30.12 849 25.07 16.1 61 56 7.4 45.3 16.27 0.641
21:45 1020 30.12 849 25.07 16.2 61.1 57 7.7 45.9 16.28 0.641
21:46 1020 30.12 849 25.07 16.3 61.3 58 8 46.5 16.3 0.642
21:47 1020 30.12 849 25.07 16.2 61.2 62 8.9 48 16.31 0.642
21:48 1020 30.12 849 25.07 15.9 60.5 65 9.3 48.8 16.08 0.633
21:49 1020 30.12 849 25.07 15.3 59.5 67 9.3 48.7 15.69 0.618
21:50 1020 30.12 849 25.07 14.8 58.7 67 8.9 48 15.28 0.602
21:51 1020 30.12 850 25.1 14.6 58.3 65 8.3 46.9 15.04 0.592
21:52 1020 30.12 850 25.1 14.9 58.8 65 8.5 47.3 15.15 0.596
21:53 1020 30.12 850 25.1 15.1 59.1 65 8.5 47.4 15.33 0.604
21:54 1020 30.12 850 25.1 15.1 59.2 65 8.6 47.4 15.43 0.607
21:55 1020 30.12 850 25.1 15.1 59.2 65 8.6 47.4 15.44 0.608
21:56 1020 30.12 850 25.1 15.2 59.4 65 8.8 47.8 15.51 0.611
21:57 1020 30.12 850 25.1 15 59.1 66 8.9 48 15.48 0.609
21:58 1020 30.12 850 25.1 14.8 58.7 68 9 48.2 15.27 0.601
21:59 1020 30.12 850 25.1 14.6 58.2 67 8.6 47.5 15.05 0.593
22:00 1020 30.12 850 25.1 14.5 58.1 67 8.5 47.2 14.9 0.587
22:01 1020 30.12 850 25.1 14.9 58.7 65 8.3 47 15.11 0.595
22:02 1020 30.12 850 25.1 15.1 59.1 65 8.6 47.5 15.31 0.603
22:03 1020 30.12 850 25.1 14.9 58.7 66 8.7 47.7 15.24 0.6
22:04 1020 30.12 850 25.1 14.6 58.3 68 8.9 48 15.03 0.592
22:05 1020 30.12 850 25.1 14.3 57.8 70 8.9 48.1 14.79 0.582
22:06 1021 30.15 850 25.1 14 57.2 71 8.8 47.9 14.48 0.57
22:07 1021 30.15 850 25.1 13.8 56.8 72 8.8 47.8 14.23 0.56
22:08 1021 30.15 850 25.1 13.6 56.4 73 8.8 47.8 14.02 0.552
22:09 1021 30.15 850 25.1 13.4 56 74 8.9 48 13.77 0.542
22:10 1021 30.15 850 25.1 13.1 55.6 75 8.8 47.8 13.55 0.533
22:11 1021 30.15 850 25.1 13.1 55.5 74 8.6 47.5 13.44 0.529
22:12 1021 30.15 850 25.1 13.1 55.6 74 8.5 47.3 13.47 0.53
22:13 1021 30.15 850 25.1 13.2 55.8 72 8.3 46.9 13.58 0.535
22:14 1021 30.15 850 25.1 13.6 56.5 68 7.9 46.2 13.83 0.544
22:15 1021 30.15 850 25.1 14 57.2 68 8.2 46.8 14.22 0.56
22:16 1021 30.15 850 25.1 14.1 57.3 68 8.3 46.9 14.37 0.566
22:17 1021 30.15 850 25.1 14.2 57.5 67 8.3 46.9 14.49 0.57
22:18 1021 30.15 850 25.1 14.3 57.7 67 8.4 47.1 14.55 0.573
22:19 1021 30.15 850 25.1 14.3 57.7 67 8.3 47 14.61 0.575
22:20 1021 30.15 850 25.1 14.2 57.6 68 8.5 47.2 14.6 0.575
22:21 1021 30.15 850 25.1 14.2 57.5 67 8.2 46.8 14.51 0.571
22:22 1021 30.15 850 25.1 14.3 57.7 67 8.2 46.7 14.58 0.574
22:23 1021 30.15 850 25.1 14.4 57.8 67 8.3 47 14.64 0.576
22:24 1021 30.15 850 25.1 14.2 57.6 68 8.4 47.2 14.6 0.575
22:25 1021 30.15 850 25.1 14.1 57.4 68 8.4 47.1 14.46 0.569
22:26 1021 30.15 850 25.1 14.1 57.3 68 8.4 47.1 14.42 0.568
22:27 1021 30.15 850 25.1 14.1 57.3 68 8.4 47 14.43 0.568
22:28 1021 30.15 850 25.1 14.1 57.4 68 8.4 47.1 14.45 0.569
22:29 1021 30.15 850 25.1 14.1 57.3 69 8.4 47.2 14.42 0.568
22:30 1021 30.15 850 25.1 14 57.2 69 8.5 47.2 14.34 0.565
22:31 1021 30.15 850 25.1 13.8 56.9 70 8.4 47.1 14.21 0.559
22:32 1021 30.15 850 25.1 13.8 56.8 69 8.4 47.1 14.15 0.557
22:33 1021 30.15 850 25.1 13.8 56.9 70 8.4 47.2 14.16 0.557
22:34 1021 30.15 850 25.1 13.8 56.8 70 8.4 47.1 14.14 0.557
22:35 1021 30.15 850 25.1 13.8 56.9 70 8.5 47.3 14.15 0.557
22:36 1021 30.15 850 25.1 13.8 56.8 70 8.5 47.3 14.16 0.557
22:37 1021 30.15 850 25.1 13.7 56.7 71 8.6 47.4 14.11 0.556
22:38 1021 30.15 850 25.1 13.6 56.4 72 8.6 47.5 14.02 0.552
22:39 1021 30.15 850 25.1 13.4 56.1 73 8.7 47.7 13.76 0.542
22:40 1021 30.15 850 25.1 13.2 55.8 74 8.7 47.6 13.63 0.537
22:41 1021 30.15 850 25.1 13.1 55.5 75 8.7 47.7 13.43 0.529
22:42 1021 30.15 850 25.1 12.9 55.2 76 8.7 47.7 13.3 0.524
22:43 1021 30.15 850 25.1 12.7 54.9 76 8.6 47.5 13.15 0.518
22:44 1021 30.15 850 25.1 12.7 54.8 75 8.5 47.3 13.14 0.517
22:45 1021 30.15 850 25.1 12.7 54.9 75 8.4 47.1 13.15 0.518
22:46 1021 30.15 850 25.1 12.8 55.1 74 8.4 47.2 13.18 0.519
22:47 1021 30.15 850 25.1 12.9 55.2 74 8.4 47.1 13.25 0.522
22:48 1021 30.15 850 25.1 13 55.4 74 8.4 47.2 13.31 0.524
22:49 1021 30.15 850 25.1 13 55.4 73 8.4 47.2 13.38 0.527
22:50 1021 30.15 850 25.1 13.1 55.5 73 8.4 47.2 13.42 0.528
22:51 1021 30.15 850 25.1 13.1 55.5 73 8.4 47.1 13.43 0.529
22:52 1021 30.15 850 25.1 13.2 55.7 72 8.3 47 13.5 0.531
22:53 1021 30.15 850 25.1 13.3 55.9 72 8.4 47 13.59 0.535
22:54 1021 30.15 850 25.1 13.3 56 72 8.4 47.2 13.65 0.537
22:55 1021 30.15 850 25.1 13.2 55.8 73 8.5 47.3 13.59 0.535
22:56 1021 30.15 850 25.1 13 55.4 74 8.4 47.1 13.41 0.528
22:57 1021 30.15 850 25.1 13 55.4 73 8.3 46.9 13.38 0.527
22:58 1021 30.15 850 25.1 13.1 55.7 72 8.2 46.8 13.47 0.53
22:59 1021 30.15 850 25.1 13.3 55.9 70 8 46.5 13.64 0.537
23:00 1021 30.15 850 25.1 13.6 56.5 66 7.4 45.3 13.91 0.548
23:01 1021 30.15 850 25.1 14.4 57.8 65 8 46.3 14.54 0.572
23:02 1021 30.15 850 25.1 14.5 58.1 66 8.2 46.8 14.76 0.581
23:03 1021 30.15 850 25.1 14.4 58 66 8.3 46.9 14.73 0.58
23:04 1021 30.15 850 25.1 14.3 57.7 68 8.5 47.3 14.61 0.575
23:05 1021 30.15 850 25.1 14 57.2 70 8.6 47.4 14.39 0.567
23:06 1021 30.15 850 25.1 13.7 56.7 71 8.6 47.4 14.17 0.558
23:07 1021 30.15 850 25.1 13.4 56.2 72 8.5 47.3 13.89 0.547
23:08 1021 30.15 850 25.1 13.3 55.9 73 8.5 47.4 13.69 0.539
23:09 1021 30.15 850 25.1 13.2 55.8 72 8.3 46.9 13.62 0.536
23:10 1021 30.15 850 25.1 13.5 56.3 70 8.2 46.7 13.77 0.542
23:11 1021 30.15 850 25.1 13.7 56.6 70 8.4 47.1 14.02 0.552
23:12 1021 30.15 850 25.1 13.7 56.7 70 8.5 47.2 14.06 0.554
23:13 1021 30.15 850 25.1 13.6 56.5 71 8.5 47.3 14.04 0.553
23:14 1021 30.15 850 25.1 13.5 56.3 71 8.5 47.2 13.92 0.548
23:15 1021 30.15 850 25.1 13.4 56.1 72 8.5 47.3 13.85 0.545
23:16 1021 30.15 850 25.1 13.3 56 72 8.5 47.3 13.72 0.54
23:17 1021 30.15 850 25.1 13.2 55.8 72 8.4 47.1 13.63 0.537
23:18 1021 30.15 850 25.1 13.1 55.6 72 8.3 46.9 13.52 0.532
23:19 1021 30.15 850 25.1 13.2 55.8 71 8.2 46.7 13.56 0.534
23:20 1021 30.15 850 25.1 13.5 56.3 69 8 46.3 13.79 0.543
23:21 1021 30.15 850 25.1 13.9 57 67 7.8 46.1 14.16 0.557
23:22 1021 30.15 850 25.1 14.3 57.7 65 7.9 46.3 14.48 0.57
23:23 1021 30.15 850 25.1 14.5 58 65 8 46.4 14.75 0.581
23:24 1021 30.15 850 25.1 14.7 58.4 64 8.1 46.5 14.93 0.588
23:25 1021 30.15 850 25.1 14.8 58.7 64 8.1 46.6 15.12 0.595
23:26 1021 30.15 850 25.1 14.8 58.7 64 8.2 46.8 15.16 0.597
23:27 1021 30.15 850 25.1 14.8 58.6 65 8.4 47.1 15.11 0.595
23:28 1021 30.15 850 25.1 14.5 58.2 67 8.5 47.3 14.96 0.589
23:29 1021 30.15 850 25.1 14.3 57.7 68 8.5 47.2 14.68 0.578
23:30 1021 30.15 850 25.1 14 57.2 69 8.5 47.2 14.5 0.571
23:31 1021 30.15 850 25.1 13.8 56.9 69 8.3 47 14.24 0.561
23:32 1021 30.15 850 25.1 13.8 56.8 69 8.3 46.9 14.16 0.557
23:33 1021 30.15 850 25.1 13.8 56.8 69 8.3 47 14.14 0.557
23:34 1021 30.15 850 25.1 13.8 56.8 69 8.2 46.7 14.15 0.557
23:35 1021 30.15 850 25.1 13.9 56.9 67 7.9 46.2 14.2 0.559
23:36 1021 30.15 850 25.1 14.2 57.5 66 7.9 46.2 14.47 0.57
23:37 1021 30.15 850 25.1 14.4 57.9 66 8.1 46.6 14.7 0.579
23:38 1021 30.15 850 25.1 14.5 58.1 66 8.3 46.9 14.79 0.582
23:39 1021 30.15 850 25.1 14.4 57.9 67 8.3 47 14.73 0.58
23:40 1021 30.15 850 25.1 14.3 57.7 68 8.5 47.3 14.61 0.575
23:41 1021 30.15 850 25.1 14 57.2 69 8.4 47.1 14.48 0.57
23:42 1021 30.15 850 25.1 13.8 56.8 70 8.5 47.4 14.23 0.56
23:43 1021 30.15 850 25.1 13.5 56.4 72 8.5 47.4 13.96 0.55
23:44 1021 30.15 850 25.1 13.3 55.9 73 8.5 47.3 13.71 0.54
23:45 1021 30.15 850 25.1 13.1 55.6 73 8.4 47.1 13.56 0.534
23:46 1021 30.15 850 25.1 13.1 55.5 73 8.3 47 13.47 0.53
23:47 1021 30.15 850 25.1 13 55.4 73 8.3 46.9 13.46 0.53
23:48 1021 30.15 850 25.1 13 55.4 73 8.3 46.9 13.38 0.527
23:49 1021 30.15 850 25.1 13 55.4 73 8.3 46.9 13.39 0.527
23:50 1021 30.15 850 25.1 13 55.4 72 8.2 46.7 13.37 0.526
23:51 1021 30.15 850 25.1 13.2 55.7 71 8 46.5 13.47 0.53
23:52 1021 30.15 850 25.1 13.3 56 71 8.1 46.7 13.6 0.535
23:53 1021 30.15 850 25.1 13.4 56 71 8.2 46.8 13.73 0.541
23:54 1021 30.15 850 25.1 13.3 55.9 71 8.3 46.9 13.65 0.537
23:55 1021 30.15 850 25.1 13.2 55.7 72 8.3 47 13.55 0.533
23:56 1021 30.15 850 25.1 13 55.4 73 8.2 46.8 13.47 0.53
23:57 1021 30.15 850 25.1 13 55.4 72 8.2 46.8 13.41 0.528
23:58 1021 30.15 850 25.1 13 55.4 72 8.2 46.7 13.39 0.527
23:59 1021 30.15 850 25.1 13 55.3 72 8.2 46.7 13.34 0.525
24:00 1021 30.15 850 25.1 12.9 55.3 73 8.2 46.7 13.28 0.523